Wetterdaten: Mittwoch, 09.03.2022
Datum Zeit Temp. Aussen Temp. o. S. Temp +5cm Feuchte Auss Luftdruck Regen Sonnenschein Regendauer Solar Windben Empfang
09.03.2022 00:00 2,1 C 0,6 C -3,3 C 69 % 1022,6 hPa 0,0 l/m 0 min 0 min 0 W/m 0,0 km/h (0 Bft) 97,87 %
09.03.2022 00:02 2,0 C 0,6 C -3,3 C 69 % 1022,6 hPa 0,0 l/m 0 min 0 min 0 W/m 0,0 km/h (0 Bft) 97,14 %
09.03.2022 00:04 2,0 C 0,0 C -3,3 C 69 % 1022,7 hPa 0,0 l/m 0 min 0 min 0 W/m 0,0 km/h (0 Bft) 98,11 %
09.03.2022 00:08 1,9 C 0,0 C -3,9 C 69 % 1022,7 hPa 0,0 l/m 0 min 0 min 0 W/m 0,0 km/h (0 Bft) 100,00 %
09.03.2022 00:10 1,8 C 0,6 C -3,9 C 69 % 1022,7 hPa 0,0 l/m 0 min 0 min 0 W/m 0,0 km/h (0 Bft) 95,74 %
09.03.2022 00:12 1,8 C 0,0 C -3,9 C 69 % 1022,7 hPa 0,0 l/m 0 min 0 min 0 W/m 0,0 km/h (0 Bft) 100,00 %
09.03.2022 00:14 1,7 C 0,6 C -3,9 C 69 % 1022,7 hPa 0,0 l/m 0 min 0 min 0 W/m 0,0 km/h (0 Bft) 100,00 %
09.03.2022 00:16 1,7 C 0,6 C -3,9 C 69 % 1022,6 hPa 0,0 l/m 0 min 0 min 0 W/m 3,2 km/h (1 Bft) 100,00 %
09.03.2022 00:18 1,7 C 0,6 C -3,9 C 69 % 1022,7 hPa 0,0 l/m 0 min 0 min 0 W/m 0,0 km/h (0 Bft) 100,00 %
09.03.2022 00:20 1,6 C 0,6 C -3,9 C 69 % 1022,7 hPa 0,0 l/m 0 min 0 min 0 W/m 0,0 km/h (0 Bft) 100,00 %
09.03.2022 00:22 1,6 C 0,6 C -3,9 C 69 % 1022,6 hPa 0,0 l/m 0 min 0 min 0 W/m 3,2 km/h (1 Bft) 100,00 %
09.03.2022 00:24 1,7 C 1,1 C -3,3 C 70 % 1022,6 hPa 0,0 l/m 0 min 0 min 0 W/m 3,2 km/h (1 Bft) 100,00 %
09.03.2022 00:26 1,7 C 1,1 C -3,3 C 69 % 1022,6 hPa 0,0 l/m 0 min 0 min 0 W/m 3,2 km/h (1 Bft) 95,65 %
09.03.2022 00:28 1,7 C 1,1 C -2,8 C 69 % 1022,6 hPa 0,0 l/m 0 min 0 min 0 W/m 6,4 km/h (2 Bft) 97,87 %
09.03.2022 00:30 1,8 C 1,7 C -2,8 C 69 % 1022,6 hPa 0,0 l/m 0 min 0 min 0 W/m 6,4 km/h (2 Bft) 97,87 %
09.03.2022 00:32 1,9 C 1,7 C -2,8 C 68 % 1022,7 hPa 0,0 l/m 0 min 0 min 0 W/m 6,4 km/h (2 Bft) 97,87 %
09.03.2022 00:34 1,9 C 1,7 C -2,8 C 68 % 1022,7 hPa 0,0 l/m 0 min 0 min 0 W/m 3,2 km/h (1 Bft) 97,87 %
09.03.2022 00:36 2,0 C 1,7 C -2,8 C 68 % 1022,8 hPa 0,0 l/m 0 min 0 min 0 W/m 3,2 km/h (1 Bft) 93,62 %
09.03.2022 00:38 2,0 C 1,7 C -2,8 C 68 % 1022,7 hPa 0,0 l/m 0 min 0 min 0 W/m 3,2 km/h (1 Bft) 97,83 %
09.03.2022 00:40 2,1 C 1,7 C -2,8 C 68 % 1022,7 hPa 0,0 l/m 0 min 0 min 0 W/m 3,2 km/h (1 Bft) 97,22 %
09.03.2022 00:42 2,1 C 1,7 C -2,8 C 67 % 1022,7 hPa 0,0 l/m 0 min 0 min 0 W/m 3,2 km/h (1 Bft) 97,83 %
09.03.2022 00:44 2,2 C 1,7 C -2,8 C 67 % 1022,7 hPa 0,0 l/m 0 min 0 min 0 W/m 3,2 km/h (1 Bft) 95,74 %
09.03.2022 00:46 2,2 C 1,7 C -2,8 C 67 % 1022,7 hPa 0,0 l/m 0 min 0 min 0 W/m 3,2 km/h (1 Bft) 97,87 %
09.03.2022 00:48 2,3 C 1,7 C -2,8 C 67 % 1022,7 hPa 0,0 l/m 0 min 0 min 0 W/m 3,2 km/h (1 Bft) 95,74 %
09.03.2022 00:50 2,3 C 1,7 C -2,8 C 66 % 1022,7 hPa 0,0 l/m 0 min 0 min 0 W/m 3,2 km/h (1 Bft) 98,11 %
09.03.2022 00:52 2,3 C 1,7 C -2,8 C 66 % 1022,7 hPa 0,0 l/m 0 min 0 min 0 W/m 6,4 km/h (2 Bft) 97,87 %
09.03.2022 00:54 2,3 C 1,7 C -2,8 C 66 % 1022,7 hPa 0,0 l/m 0 min 0 min 0 W/m 3,2 km/h (1 Bft) 97,87 %
09.03.2022 00:56 2,3 C 1,7 C -2,2 C 66 % 1022,7 hPa 0,0 l/m 0 min 0 min 0 W/m 3,2 km/h (1 Bft) 100,00 %
09.03.2022 00:58 2,4 C 1,7 C -2,2 C 66 % 1022,8 hPa 0,0 l/m 0 min 0 min 0 W/m 6,4 km/h (2 Bft) 100,00 %
09.03.2022 01:00 2,4 C 1,7 C -2,2 C 65 % 1022,8 hPa 0,0 l/m 0 min 0 min 0 W/m 6,4 km/h (2 Bft) 100,00 %
09.03.2022 01:02 2,4 C 2,2 C -1,7 C 65 % 1022,8 hPa 0,0 l/m 0 min 0 min 0 W/m 6,4 km/h (2 Bft) 100,00 %
09.03.2022 01:04 2,4 C 2,2 C -1,7 C 65 % 1022,8 hPa 0,0 l/m 0 min 0 min 0 W/m 6,4 km/h (2 Bft) 100,00 %
09.03.2022 01:06 2,4 C 2,2 C -1,7 C 65 % 1022,8 hPa 0,0 l/m 0 min 0 min 0 W/m 6,4 km/h (2 Bft) 100,00 %
09.03.2022 01:08 2,5 C 2,2 C -1,7 C 65 % 1022,9 hPa 0,0 l/m 0 min 0 min 0 W/m 6,4 km/h (2 Bft) 97,87 %
09.03.2022 01:10 2,6 C 2,2 C -1,7 C 65 % 1022,9 hPa 0,0 l/m 0 min 0 min 0 W/m 6,4 km/h (2 Bft) 97,87 %
09.03.2022 01:12 2,6 C 2,2 C -1,7 C 65 % 1022,9 hPa 0,0 l/m 0 min 0 min 0 W/m 12,9 km/h (3 Bft) 95,74 %
09.03.2022 01:14 2,6 C 2,2 C -1,7 C 64 % 1022,8 hPa 0,0 l/m 0 min 0 min 0 W/m 9,7 km/h (2 Bft) 97,83 %
09.03.2022 01:16 2,7 C 2,2 C -1,7 C 64 % 1022,8 hPa 0,0 l/m 0 min 0 min 0 W/m 6,4 km/h (2 Bft) 93,62 %
09.03.2022 01:18 2,7 C 2,2 C -1,1 C 64 % 1022,8 hPa 0,0 l/m 0 min 0 min 0 W/m 6,4 km/h (2 Bft) 93,62 %
09.03.2022 01:20 2,7 C 2,2 C -1,1 C 64 % 1022,8 hPa 0,0 l/m 0 min 0 min 0 W/m 12,9 km/h (3 Bft) 95,74 %
09.03.2022 01:22 2,8 C 2,2 C -1,1 C 64 % 1022,8 hPa 0,0 l/m 0 min 0 min 0 W/m 3,2 km/h (1 Bft) 97,87 %
09.03.2022 01:24 2,8 C 2,2 C -1,1 C 64 % 1022,9 hPa 0,0 l/m 0 min 0 min 0 W/m 6,4 km/h (2 Bft) 95,74 %
09.03.2022 01:26 2,8 C 2,2 C -1,1 C 63 % 1022,9 hPa 0,0 l/m 0 min 0 min 0 W/m 16,1 km/h (3 Bft) 95,65 %
09.03.2022 01:28 2,8 C 2,2 C -1,1 C 63 % 1022,9 hPa 0,0 l/m 0 min 0 min 0 W/m 6,4 km/h (2 Bft) 95,74 %
09.03.2022 01:30 2,8 C 2,2 C -1,1 C 63 % 1022,9 hPa 0,0 l/m 0 min 0 min 0 W/m 6,4 km/h (2 Bft) 95,74 %
09.03.2022 01:32 2,8 C 2,2 C -1,1 C 63 % 1022,9 hPa 0,0 l/m 0 min 0 min 0 W/m 12,9 km/h (3 Bft) 95,74 %
09.03.2022 01:34 2,8 C 2,2 C -1,1 C 63 % 1022,9 hPa 0,0 l/m 0 min 0 min 0 W/m 6,4 km/h (2 Bft) 95,74 %
09.03.2022 01:36 2,9 C 2,2 C -1,1 C 63 % 1022,9 hPa 0,0 l/m 0 min 0 min 0 W/m 6,4 km/h (2 Bft) 93,48 %
09.03.2022 01:38 2,9 C 2,2 C -1,7 C 63 % 1023,0 hPa 0,0 l/m 0 min 0 min 0 W/m 3,2 km/h (1 Bft) 95,74 %
09.03.2022 01:40 2,9 C 2,2 C -1,7 C 63 % 1023,0 hPa 0,0 l/m 0 min 0 min 0 W/m 3,2 km/h (1 Bft) 95,24 %
09.03.2022 01:42 2,8 C 2,2 C -1,7 C 63 % 1023,0 hPa 0,0 l/m 0 min 0 min 0 W/m 3,2 km/h (1 Bft) 95,74 %
09.03.2022 01:44 2,8 C 1,7 C -1,7 C 63 % 1023,0 hPa 0,0 l/m 0 min 0 min 0 W/m 3,2 km/h (1 Bft) 95,65 %
09.03.2022 01:46 2,8 C 1,7 C -1,7 C 63 % 1023,1 hPa 0,0 l/m 0 min 0 min 0 W/m 3,2 km/h (1 Bft) 93,62 %
09.03.2022 01:48 2,8 C 1,7 C -2,2 C 63 % 1023,1 hPa 0,0 l/m 0 min 0 min 0 W/m 3,2 km/h (1 Bft) 95,74 %
09.03.2022 01:50 2,8 C 1,7 C -2,2 C 63 % 1023,1 hPa 0,0 l/m 0 min 0 min 0 W/m 3,2 km/h (1 Bft) 95,74 %
09.03.2022 01:52 2,8 C 1,7 C -2,2 C 63 % 1023,1 hPa 0,0 l/m 0 min 0 min 0 W/m 3,2 km/h (1 Bft) 95,74 %
09.03.2022 01:54 2,7 C 1,1 C -2,2 C 64 % 1023,0 hPa 0,0 l/m 0 min 0 min 0 W/m 3,2 km/h (1 Bft) 97,83 %
09.03.2022 01:56 2,7 C 1,1 C -2,2 C 64 % 1023,1 hPa 0,0 l/m 0 min 0 min 0 W/m 3,2 km/h (1 Bft) 95,74 %
09.03.2022 01:58 2,7 C 1,7 C -2,2 C 64 % 1023,1 hPa 0,0 l/m 0 min 0 min 0 W/m 6,4 km/h (2 Bft) 98,00 %
09.03.2022 02:00 2,6 C 1,7 C -2,2 C 64 % 1023,1 hPa 0,0 l/m 0 min 0 min 0 W/m 3,2 km/h (1 Bft) 96,00 %
09.03.2022 02:02 2,6 C 1,7 C -2,2 C 64 % 1023,1 hPa 0,0 l/m 0 min 0 min 0 W/m 6,4 km/h (2 Bft) 97,87 %
09.03.2022 02:04 2,6 C 1,7 C -2,2 C 64 % 1023,1 hPa 0,0 l/m 0 min 0 min 0 W/m 3,2 km/h (1 Bft) 97,67 %
09.03.2022 02:06 2,5 C 1,7 C -2,2 C 65 % 1023,1 hPa 0,0 l/m 0 min 0 min 0 W/m 6,4 km/h (2 Bft) 95,74 %
09.03.2022 02:08 2,5 C 1,7 C -2,2 C 65 % 1023,1 hPa 0,0 l/m 0 min 0 min 0 W/m 6,4 km/h (2 Bft) 97,87 %
09.03.2022 02:10 2,5 C 1,7 C -2,2 C 65 % 1023,1 hPa 0,0 l/m 0 min 0 min 0 W/m 6,4 km/h (2 Bft) 97,87 %
09.03.2022 02:12 2,4 C 1,7 C -2,2 C 65 % 1023,1 hPa 0,0 l/m 0 min 0 min 0 W/m 6,4 km/h (2 Bft) 97,83 %
09.03.2022 02:14 2,4 C 1,7 C -2,2 C 65 % 1023,1 hPa 0,0 l/m 0 min 0 min 0 W/m 6,4 km/h (2 Bft) 93,62 %
09.03.2022 02:16 2,4 C 1,7 C -1,7 C 65 % 1023,1 hPa 0,0 l/m 0 min 0 min 0 W/m 9,7 km/h (2 Bft) 97,87 %
09.03.2022 02:18 2,5 C 1,7 C -1,7 C 65 % 1023,1 hPa 0,0 l/m 0 min 0 min 0 W/m 6,4 km/h (2 Bft) 96,23 %
09.03.2022 02:20 2,5 C 1,7 C -1,7 C 65 % 1023,1 hPa 0,0 l/m 0 min 0 min 0 W/m 6,4 km/h (2 Bft) 97,37 %
09.03.2022 02:22 2,4 C 1,7 C -1,7 C 65 % 1023,1 hPa 0,0 l/m 0 min 0 min 0 W/m 3,2 km/h (1 Bft) 98,00 %
09.03.2022 02:24 2,5 C 1,7 C -1,7 C 65 % 1023,0 hPa 0,0 l/m 0 min 0 min 0 W/m 6,4 km/h (2 Bft) 97,83 %
09.03.2022 02:26 2,4 C 1,7 C -1,7 C 65 % 1023,0 hPa 0,0 l/m 0 min 0 min 0 W/m 6,4 km/h (2 Bft) 97,87 %
09.03.2022 02:28 2,4 C 1,7 C -1,7 C 65 % 1023,1 hPa 0,0 l/m 0 min 0 min 0 W/m 6,4 km/h (2 Bft) 97,87 %
09.03.2022 02:30 2,4 C 1,7 C -1,7 C 64 % 1023,0 hPa 0,0 l/m 0 min 0 min 0 W/m 6,4 km/h (2 Bft) 55,56 %
09.03.2022 02:32 2,4 C 1,7 C -1,7 C 64 % 1023,0 hPa 0,0 l/m 0 min 0 min 0 W/m 12,9 km/h (3 Bft) 98,11 %
09.03.2022 02:34 2,4 C 1,7 C -1,7 C 64 % 1023,0 hPa 0,0 l/m 0 min 0 min 0 W/m 9,7 km/h (2 Bft) 97,87 %
09.03.2022 02:36 2,4 C 1,7 C -1,7 C 64 % 1022,9 hPa 0,0 l/m 0 min 0 min 0 W/m 12,9 km/h (3 Bft) 97,87 %
09.03.2022 02:38 2,4 C 1,7 C -1,7 C 64 % 1022,9 hPa 0,0 l/m 0 min 0 min 0 W/m 6,4 km/h (2 Bft) 97,37 %
09.03.2022 02:40 2,4 C 1,7 C -1,7 C 64 % 1023,0 hPa 0,0 l/m 0 min 0 min 0 W/m 9,7 km/h (2 Bft) 100,00 %
09.03.2022 02:42 2,4 C 1,7 C -1,7 C 64 % 1022,9 hPa 0,0 l/m 0 min 0 min 0 W/m 6,4 km/h (2 Bft) 100,00 %
09.03.2022 02:44 2,4 C 1,7 C -1,7 C 64 % 1022,9 hPa 0,0 l/m 0 min 0 min 0 W/m 9,7 km/h (2 Bft) 100,00 %
09.03.2022 02:46 2,4 C 1,7 C -1,7 C 64 % 1022,9 hPa 0,0 l/m 0 min 0 min 0 W/m 12,9 km/h (3 Bft) 97,87 %
09.03.2022 02:48 2,4 C 1,7 C -1,7 C 64 % 1022,9 hPa 0,0 l/m 0 min 0 min 0 W/m 12,9 km/h (3 Bft) 100,00 %
09.03.2022 02:50 2,4 C 1,7 C -1,7 C 64 % 1022,9 hPa 0,0 l/m 0 min 0 min 0 W/m 12,9 km/h (3 Bft) 100,00 %
09.03.2022 02:52 2,4 C 1,7 C -1,7 C 64 % 1022,9 hPa 0,0 l/m 0 min 0 min 0 W/m 12,9 km/h (3 Bft) 100,00 %
09.03.2022 02:54 2,4 C 1,7 C -1,7 C 64 % 1022,9 hPa 0,0 l/m 0 min 0 min 0 W/m 6,4 km/h (2 Bft) 100,00 %
09.03.2022 02:56 2,5 C 1,7 C -1,7 C 64 % 1022,8 hPa 0,0 l/m 0 min 0 min 0 W/m 6,4 km/h (2 Bft) 97,87 %
09.03.2022 02:58 2,5 C 1,7 C -1,7 C 64 % 1022,9 hPa 0,0 l/m 0 min 0 min 0 W/m 16,1 km/h (3 Bft) 100,00 %
09.03.2022 03:00 2,5 C 1,7 C -1,7 C 64 % 1022,9 hPa 0,0 l/m 0 min 0 min 0 W/m 12,9 km/h (3 Bft) 97,87 %
09.03.2022 03:02 2,4 C 1,7 C -1,7 C 64 % 1022,8 hPa 0,0 l/m 0 min 0 min 0 W/m 19,3 km/h (3 Bft) 98,00 %
09.03.2022 03:04 2,5 C 1,7 C -1,7 C 64 % 1022,8 hPa 0,0 l/m 0 min 0 min 0 W/m 16,1 km/h (3 Bft) 100,00 %
09.03.2022 03:06 2,5 C 1,7 C -1,7 C 64 % 1022,8 hPa 0,0 l/m 0 min 0 min 0 W/m 6,4 km/h (2 Bft) 100,00 %
09.03.2022 03:08 2,5 C 1,7 C -1,7 C 64 % 1022,8 hPa 0,0 l/m 0 min 0 min 0 W/m 12,9 km/h (3 Bft) 100,00 %
09.03.2022 03:10 2,5 C 1,7 C -1,7 C 64 % 1022,8 hPa 0,0 l/m 0 min 0 min 0 W/m 16,1 km/h (3 Bft) 98,11 %
09.03.2022 03:12 2,4 C 1,7 C -1,7 C 64 % 1022,8 hPa 0,0 l/m 0 min 0 min 0 W/m 6,4 km/h (2 Bft) 100,00 %
09.03.2022 03:14 2,4 C 1,7 C -1,7 C 64 % 1022,8 hPa 0,0 l/m 0 min 0 min 0 W/m 6,4 km/h (2 Bft) 100,00 %
09.03.2022 03:16 2,4 C 1,7 C -2,2 C 64 % 1022,8 hPa 0,0 l/m 0 min 0 min 0 W/m 6,4 km/h (2 Bft) 97,87 %
09.03.2022 03:18 2,4 C 1,7 C -1,7 C 64 % 1022,8 hPa 0,0 l/m 0 min 0 min 0 W/m 6,4 km/h (2 Bft) 100,00 %
09.03.2022 03:20 2,4 C 1,7 C -2,2 C 64 % 1022,8 hPa 0,0 l/m 0 min 0 min 0 W/m 12,9 km/h (3 Bft) 97,14 %
09.03.2022 03:22 2,4 C 1,7 C -2,2 C 64 % 1022,8 hPa 0,0 l/m 0 min 0 min 0 W/m 12,9 km/h (3 Bft) 100,00 %
09.03.2022 03:24 2,4 C 1,1 C -2,2 C 64 % 1022,8 hPa 0,0 l/m 0 min 0 min 0 W/m 3,2 km/h (1 Bft) 97,83 %
09.03.2022 03:26 2,3 C 1,1 C -2,2 C 64 % 1022,8 hPa 0,0 l/m 0 min 0 min 0 W/m 6,4 km/h (2 Bft) 97,87 %
09.03.2022 03:28 2,3 C 1,1 C -2,2 C 64 % 1022,8 hPa 0,0 l/m 0 min 0 min 0 W/m 3,2 km/h (1 Bft) 95,74 %
09.03.2022 03:30 2,3 C 1,1 C -2,2 C 64 % 1022,8 hPa 0,0 l/m 0 min 0 min 0 W/m 6,4 km/h (2 Bft) 97,87 %
09.03.2022 03:32 2,3 C 1,1 C -2,2 C 64 % 1022,8 hPa 0,0 l/m 0 min 0 min 0 W/m 6,4 km/h (2 Bft) 97,87 %
09.03.2022 03:34 2,2 C 1,1 C -2,2 C 65 % 1022,8 hPa 0,0 l/m 0 min 0 min 0 W/m 6,4 km/h (2 Bft) 97,87 %
09.03.2022 03:36 2,2 C 1,1 C -2,2 C 65 % 1022,8 hPa 0,0 l/m 0 min 0 min 0 W/m 6,4 km/h (2 Bft) 95,65 %
09.03.2022 03:38 2,2 C 1,1 C -2,2 C 65 % 1022,8 hPa 0,0 l/m 0 min 0 min 0 W/m 12,9 km/h (3 Bft) 95,74 %
09.03.2022 03:40 2,1 C 1,1 C -2,2 C 65 % 1022,8 hPa 0,0 l/m 0 min 0 min 0 W/m 12,9 km/h (3 Bft) 98,11 %
09.03.2022 03:42 2,1 C 1,1 C -2,2 C 65 % 1022,8 hPa 0,0 l/m 0 min 0 min 0 W/m 6,4 km/h (2 Bft) 96,00 %
09.03.2022 03:44 2,1 C 1,1 C -2,2 C 65 % 1022,8 hPa 0,0 l/m 0 min 0 min 0 W/m 0,0 km/h (0 Bft) 97,87 %
09.03.2022 03:46 2,1 C 1,1 C -2,2 C 65 % 1022,8 hPa 0,0 l/m 0 min 0 min 0 W/m 0,0 km/h (0 Bft) 97,87 %
09.03.2022 03:48 2,0 C 1,1 C -2,2 C 65 % 1022,8 hPa 0,0 l/m 0 min 0 min 0 W/m 0,0 km/h (0 Bft) 97,83 %
09.03.2022 03:50 2,0 C 1,1 C -2,2 C 65 % 1022,8 hPa 0,0 l/m 0 min 0 min 0 W/m 12,9 km/h (3 Bft) 97,87 %
09.03.2022 03:52 1,9 C 1,1 C -2,2 C 65 % 1022,8 hPa 0,0 l/m 0 min 0 min 0 W/m 12,9 km/h (3 Bft) 95,74 %
09.03.2022 03:54 1,9 C 1,1 C -2,2 C 66 % 1022,8 hPa 0,0 l/m 0 min 0 min 0 W/m 6,4 km/h (2 Bft) 96,00 %
09.03.2022 03:56 1,9 C 1,1 C -2,2 C 66 % 1022,7 hPa 0,0 l/m 0 min 0 min 0 W/m 12,9 km/h (3 Bft) 95,65 %
09.03.2022 03:58 1,9 C 1,1 C -2,2 C 66 % 1022,8 hPa 0,0 l/m 0 min 0 min 0 W/m 12,9 km/h (3 Bft) 95,83 %
09.03.2022 04:00 1,9 C 1,1 C -2,2 C 66 % 1022,7 hPa 0,0 l/m 0 min 0 min 0 W/m 6,4 km/h (2 Bft) 97,87 %
09.03.2022 04:02 1,9 C 1,1 C -2,2 C 66 % 1022,7 hPa 0,0 l/m 0 min 0 min 0 W/m 9,7 km/h (2 Bft) 95,24 %
09.03.2022 04:04 1,9 C 1,1 C -2,2 C 66 % 1022,7 hPa 0,0 l/m 0 min 0 min 0 W/m 12,9 km/h (3 Bft) 95,45 %
09.03.2022 04:06 1,9 C 1,1 C -2,2 C 66 % 1022,7 hPa 0,0 l/m 0 min 0 min 0 W/m 12,9 km/h (3 Bft) 97,87 %
09.03.2022 04:08 1,9 C 1,1 C -2,2 C 66 % 1022,7 hPa 0,0 l/m 0 min 0 min 0 W/m 12,9 km/h (3 Bft) 97,83 %
09.03.2022 04:10 1,9 C 1,1 C -2,2 C 66 % 1022,7 hPa 0,0 l/m 0 min 0 min 0 W/m 12,9 km/h (3 Bft) 97,62 %
09.03.2022 04:12 1,9 C 1,1 C -2,2 C 66 % 1022,7 hPa 0,0 l/m 0 min 0 min 0 W/m 6,4 km/h (2 Bft) 96,00 %
09.03.2022 04:14 1,9 C 1,1 C -2,2 C 66 % 1022,7 hPa 0,0 l/m 0 min 0 min 0 W/m 12,9 km/h (3 Bft) 97,83 %
09.03.2022 04:16 1,9 C 1,1 C -2,2 C 66 % 1022,7 hPa 0,0 l/m 0 min 0 min 0 W/m 12,9 km/h (3 Bft) 97,87 %
09.03.2022 04:18 1,9 C 1,1 C -2,2 C 66 % 1022,7 hPa 0,0 l/m 0 min 0 min 0 W/m 12,9 km/h (3 Bft) 98,00 %
09.03.2022 04:20 1,9 C 1,1 C -2,2 C 66 % 1022,7 hPa 0,0 l/m 0 min 0 min 0 W/m 6,4 km/h (2 Bft) 97,83 %
09.03.2022 04:22 1,9 C 1,1 C -2,2 C 66 % 1022,7 hPa 0,0 l/m 0 min 0 min 0 W/m 6,4 km/h (2 Bft) 100,00 %
09.03.2022 04:24 1,9 C 1,1 C -2,2 C 66 % 1022,6 hPa 0,0 l/m 0 min 0 min 0 W/m 12,9 km/h (3 Bft) 100,00 %
09.03.2022 04:26 1,9 C 1,1 C -2,2 C 66 % 1022,6 hPa 0,0 l/m 0 min 0 min 0 W/m 12,9 km/h (3 Bft) 100,00 %
09.03.2022 04:28 1,9 C 1,1 C -2,2 C 66 % 1022,6 hPa 0,0 l/m 0 min 0 min 0 W/m 12,9 km/h (3 Bft) 100,00 %
09.03.2022 04:30 1,9 C 1,1 C -2,2 C 66 % 1022,6 hPa 0,0 l/m 0 min 0 min 0 W/m 12,9 km/h (3 Bft) 100,00 %
09.03.2022 04:32 1,9 C 1,1 C -2,2 C 65 % 1022,6 hPa 0,0 l/m 0 min 0 min 0 W/m 12,9 km/h (3 Bft) 95,65 %
09.03.2022 04:34 1,9 C 1,1 C -2,2 C 65 % 1022,6 hPa 0,0 l/m 0 min 0 min 0 W/m 16,1 km/h (3 Bft) 97,87 %
09.03.2022 04:36 1,9 C 1,1 C -2,2 C 65 % 1022,6 hPa 0,0 l/m 0 min 0 min 0 W/m 6,4 km/h (2 Bft) 97,87 %
09.03.2022 04:38 1,9 C 1,1 C -2,2 C 65 % 1022,6 hPa 0,0 l/m 0 min 0 min 0 W/m 12,9 km/h (3 Bft) 95,12 %
09.03.2022 04:40 1,9 C 1,1 C -2,2 C 65 % 1022,6 hPa 0,0 l/m 0 min 0 min 0 W/m 12,9 km/h (3 Bft) 98,00 %
09.03.2022 04:42 1,9 C 1,1 C -2,2 C 65 % 1022,5 hPa 0,0 l/m 0 min 0 min 0 W/m 12,9 km/h (3 Bft) 97,87 %
09.03.2022 04:44 1,9 C 1,1 C -2,2 C 65 % 1022,5 hPa 0,0 l/m 0 min 0 min 0 W/m 12,9 km/h (3 Bft) 97,87 %
09.03.2022 04:46 1,9 C 1,1 C -2,2 C 65 % 1022,5 hPa 0,0 l/m 0 min 0 min 0 W/m 12,9 km/h (3 Bft) 95,74 %
09.03.2022 04:48 1,9 C 1,1 C -2,2 C 65 % 1022,5 hPa 0,0 l/m 0 min 0 min 0 W/m 19,3 km/h (3 Bft) 95,65 %
09.03.2022 04:50 1,9 C 1,1 C -2,2 C 65 % 1022,5 hPa 0,0 l/m 0 min 0 min 0 W/m 16,1 km/h (3 Bft) 97,87 %
09.03.2022 04:52 1,9 C 1,1 C -2,2 C 65 % 1022,5 hPa 0,0 l/m 0 min 0 min 0 W/m 12,9 km/h (3 Bft) 97,87 %
09.03.2022 04:54 1,9 C 1,1 C -2,2 C 65 % 1022,5 hPa 0,0 l/m 0 min 0 min 0 W/m 19,3 km/h (3 Bft) 97,87 %
09.03.2022 04:56 1,9 C 1,1 C -2,2 C 65 % 1022,4 hPa 0,0 l/m 0 min 0 min 0 W/m 16,1 km/h (3 Bft) 97,87 %
09.03.2022 04:58 1,9 C 1,1 C -2,2 C 65 % 1022,5 hPa 0,0 l/m 0 min 0 min 0 W/m 12,9 km/h (3 Bft) 97,87 %
09.03.2022 05:00 1,9 C 1,1 C -2,2 C 65 % 1022,5 hPa 0,0 l/m 0 min 0 min 0 W/m 12,9 km/h (3 Bft) 97,96 %
09.03.2022 05:02 1,9 C 1,1 C -2,2 C 65 % 1022,5 hPa 0,0 l/m 0 min 0 min 0 W/m 12,9 km/h (3 Bft) 97,87 %
09.03.2022 05:04 1,9 C 1,1 C -2,2 C 65 % 1022,5 hPa 0,0 l/m 0 min 0 min 0 W/m 16,1 km/h (3 Bft) 97,73 %
09.03.2022 05:06 1,9 C 1,1 C -2,2 C 65 % 1022,5 hPa 0,0 l/m 0 min 0 min 0 W/m 12,9 km/h (3 Bft) 95,65 %
09.03.2022 05:08 1,9 C 1,1 C -2,2 C 65 % 1022,5 hPa 0,0 l/m 0 min 0 min 0 W/m 12,9 km/h (3 Bft) 97,87 %
09.03.2022 05:10 1,9 C 1,1 C -2,2 C 65 % 1022,5 hPa 0,0 l/m 0 min 0 min 0 W/m 12,9 km/h (3 Bft) 95,74 %
09.03.2022 05:12 1,9 C 1,1 C -2,2 C 65 % 1022,5 hPa 0,0 l/m 0 min 0 min 0 W/m 12,9 km/h (3 Bft) 98,11 %
09.03.2022 05:14 1,8 C 1,1 C -2,2 C 65 % 1022,5 hPa 0,0 l/m 0 min 0 min 0 W/m 12,9 km/h (3 Bft) 97,87 %
09.03.2022 05:16 1,9 C 1,1 C -2,2 C 65 % 1022,5 hPa 0,0 l/m 0 min 0 min 0 W/m 12,9 km/h (3 Bft) 97,87 %
09.03.2022 05:18 1,9 C 1,1 C -2,2 C 65 % 1022,6 hPa 0,0 l/m 0 min 0 min 0 W/m 16,1 km/h (3 Bft) 97,37 %
09.03.2022 05:20 1,9 C 1,1 C -2,2 C 65 % 1022,6 hPa 0,0 l/m 0 min 0 min 0 W/m 16,1 km/h (3 Bft) 97,87 %
09.03.2022 05:22 1,8 C 1,1 C -2,2 C 65 % 1022,6 hPa 0,0 l/m 0 min 0 min 0 W/m 6,4 km/h (2 Bft) 95,65 %
09.03.2022 05:24 1,9 C 1,1 C -2,2 C 65 % 1022,6 hPa 0,0 l/m 0 min 0 min 0 W/m 12,9 km/h (3 Bft) 96,00 %
09.03.2022 05:26 1,9 C 1,1 C -2,2 C 65 % 1022,6 hPa 0,0 l/m 0 min 0 min 0 W/m 12,9 km/h (3 Bft) 100,00 %
09.03.2022 05:28 1,9 C 1,1 C -2,2 C 65 % 1022,6 hPa 0,0 l/m 0 min 0 min 0 W/m 16,1 km/h (3 Bft) 97,87 %
09.03.2022 05:30 1,9 C 1,1 C -2,2 C 65 % 1022,6 hPa 0,0 l/m 0 min 0 min 0 W/m 12,9 km/h (3 Bft) 100,00 %
09.03.2022 05:32 1,9 C 1,1 C -2,2 C 65 % 1022,6 hPa 0,0 l/m 0 min 0 min 0 W/m 12,9 km/h (3 Bft) 100,00 %
09.03.2022 05:34 1,9 C 1,1 C -2,2 C 65 % 1022,6 hPa 0,0 l/m 0 min 0 min 0 W/m 16,1 km/h (3 Bft) 100,00 %
09.03.2022 05:36 1,9 C 1,1 C -2,2 C 65 % 1022,6 hPa 0,0 l/m 0 min 0 min 0 W/m 16,1 km/h (3 Bft) 95,74 %
09.03.2022 05:38 1,9 C 1,1 C -2,2 C 65 % 1022,6 hPa 0,0 l/m 0 min 0 min 0 W/m 12,9 km/h (3 Bft) 95,74 %
09.03.2022 05:40 1,9 C 1,1 C -2,2 C 65 % 1022,5 hPa 0,0 l/m 0 min 0 min 0 W/m 16,1 km/h (3 Bft) 95,65 %
09.03.2022 05:42 1,8 C 1,1 C -2,2 C 65 % 1022,6 hPa 0,0 l/m 0 min 0 min 0 W/m 12,9 km/h (3 Bft) 95,74 %
09.03.2022 05:44 1,8 C 1,1 C -2,2 C 65 % 1022,6 hPa 0,0 l/m 0 min 0 min 0 W/m 16,1 km/h (3 Bft) 94,34 %
09.03.2022 05:46 1,8 C 1,1 C -2,2 C 65 % 1022,6 hPa 0,0 l/m 0 min 0 min 0 W/m 12,9 km/h (3 Bft) 93,62 %
09.03.2022 05:48 1,8 C 1,1 C -2,8 C 65 % 1022,6 hPa 0,0 l/m 0 min 0 min 0 W/m 16,1 km/h (3 Bft) 95,74 %
09.03.2022 05:50 1,8 C 1,1 C -2,8 C 65 % 1022,6 hPa 0,0 l/m 0 min 0 min 0 W/m 12,9 km/h (3 Bft) 95,74 %
09.03.2022 05:52 1,8 C 0,6 C -2,8 C 65 % 1022,6 hPa 0,0 l/m 0 min 0 min 0 W/m 12,9 km/h (3 Bft) 95,74 %
09.03.2022 05:54 1,8 C 0,6 C -2,8 C 65 % 1022,6 hPa 0,0 l/m 0 min 0 min 0 W/m 6,4 km/h (2 Bft) 95,74 %
09.03.2022 05:56 1,7 C 0,6 C -2,8 C 65 % 1022,6 hPa 0,0 l/m 0 min 0 min 0 W/m 6,4 km/h (2 Bft) 95,65 %
09.03.2022 05:58 1,7 C 0,6 C -2,8 C 66 % 1022,6 hPa 0,0 l/m 0 min 0 min 0 W/m 6,4 km/h (2 Bft) 95,45 %
09.03.2022 06:00 1,7 C 0,6 C -2,8 C 66 % 1022,6 hPa 0,0 l/m 0 min 0 min 0 W/m 12,9 km/h (3 Bft) 95,12 %
09.03.2022 06:02 1,7 C 0,6 C -2,8 C 66 % 1022,6 hPa 0,0 l/m 0 min 0 min 0 W/m 12,9 km/h (3 Bft) 93,18 %
09.03.2022 06:04 1,7 C 0,6 C -2,8 C 66 % 1022,6 hPa 0,0 l/m 0 min 0 min 0 W/m 12,9 km/h (3 Bft) 98,00 %
09.03.2022 06:06 1,6 C 0,6 C -2,8 C 66 % 1022,6 hPa 0,0 l/m 0 min 0 min 0 W/m 6,4 km/h (2 Bft) 95,65 %
09.03.2022 06:08 1,6 C 0,6 C -2,8 C 66 % 1022,6 hPa 0,0 l/m 0 min 0 min 0 W/m 6,4 km/h (2 Bft) 95,74 %
09.03.2022 06:10 1,6 C 0,6 C -2,8 C 66 % 1022,6 hPa 0,0 l/m 0 min 0 min 0 W/m 9,7 km/h (2 Bft) 98,11 %
09.03.2022 06:12 1,6 C 0,6 C -2,8 C 66 % 1022,6 hPa 0,0 l/m 0 min 0 min 0 W/m 12,9 km/h (3 Bft) 97,87 %
09.03.2022 06:14 1,6 C 0,6 C -2,8 C 66 % 1022,6 hPa 0,0 l/m 0 min 0 min 0 W/m 12,9 km/h (3 Bft) 97,87 %
09.03.2022 06:16 1,6 C 0,6 C -2,8 C 67 % 1022,6 hPa 0,0 l/m 0 min 0 min 0 W/m 16,1 km/h (3 Bft) 100,00 %
09.03.2022 06:18 1,5 C 0,6 C -2,8 C 67 % 1022,6 hPa 0,0 l/m 0 min 0 min 0 W/m 9,7 km/h (2 Bft) 100,00 %
09.03.2022 06:20 1,5 C 0,6 C -2,8 C 67 % 1022,7 hPa 0,0 l/m 0 min 0 min 0 W/m 12,9 km/h (3 Bft) 100,00 %
09.03.2022 06:22 1,5 C 0,6 C -2,8 C 67 % 1022,7 hPa 0,0 l/m 0 min 0 min 0 W/m 12,9 km/h (3 Bft) 100,00 %
09.03.2022 06:24 1,5 C 0,6 C -2,8 C 67 % 1022,7 hPa 0,0 l/m 0 min 0 min 0 W/m 6,4 km/h (2 Bft) 100,00 %
09.03.2022 06:26 1,5 C 0,6 C -2,8 C 67 % 1022,7 hPa 0,0 l/m 0 min 0 min 0 W/m 6,4 km/h (2 Bft) 100,00 %
09.03.2022 06:28 1,5 C 0,6 C -2,8 C 67 % 1022,7 hPa 0,0 l/m 0 min 0 min 0 W/m 16,1 km/h (3 Bft) 57,45 %
09.03.2022 06:30 1,5 C 0,6 C -2,8 C 67 % 1022,8 hPa 0,0 l/m 0 min 0 min 0 W/m 12,9 km/h (3 Bft) 97,83 %
09.03.2022 06:32 1,5 C 0,6 C -2,8 C 67 % 1022,7 hPa 0,0 l/m 0 min 0 min 0 W/m 12,9 km/h (3 Bft) 100,00 %
09.03.2022 06:34 1,5 C 0,6 C -2,8 C 67 % 1022,7 hPa 0,0 l/m 0 min 0 min 0 W/m 9,7 km/h (2 Bft) 100,00 %
09.03.2022 06:36 1,4 C 0,6 C -2,8 C 67 % 1022,8 hPa 0,0 l/m 0 min 0 min 0 W/m 3,2 km/h (1 Bft) 97,87 %
09.03.2022 06:38 1,4 C 0,6 C -2,8 C 67 % 1022,8 hPa 0,0 l/m 0 min 0 min 0 W/m 6,4 km/h (2 Bft) 100,00 %
09.03.2022 06:40 1,4 C 0,6 C -2,8 C 67 % 1022,8 hPa 0,0 l/m 0 min 0 min 0 W/m 6,4 km/h (2 Bft) 100,00 %
09.03.2022 06:42 1,4 C 0,6 C -2,8 C 67 % 1022,8 hPa 0,0 l/m 0 min 0 min 0 W/m 6,4 km/h (2 Bft) 100,00 %
09.03.2022 06:44 1,4 C 0,6 C -2,8 C 67 % 1022,8 hPa 0,0 l/m 0 min 0 min 0 W/m 3,2 km/h (1 Bft) 100,00 %
09.03.2022 06:46 1,4 C 0,6 C -3,3 C 67 % 1022,9 hPa 0,0 l/m 0 min 0 min 0 W/m 6,4 km/h (2 Bft) 97,87 %
09.03.2022 06:48 1,4 C 0,6 C -3,3 C 67 % 1022,9 hPa 0,0 l/m 0 min 0 min 0 W/m 6,4 km/h (2 Bft) 100,00 %
09.03.2022 06:50 1,3 C 0,6 C -3,3 C 67 % 1022,9 hPa 0,0 l/m 0 min 0 min 0 W/m 6,4 km/h (2 Bft) 100,00 %
09.03.2022 06:52 1,3 C 0,6 C -2,8 C 67 % 1022,9 hPa 0,0 l/m 0 min 0 min 0 W/m 9,7 km/h (2 Bft) 97,83 %
09.03.2022 06:54 1,3 C 0,6 C -3,3 C 67 % 1022,9 hPa 0,0 l/m 0 min 0 min 0 W/m 3,2 km/h (1 Bft) 100,00 %
09.03.2022 06:56 1,3 C 0,6 C -3,3 C 67 % 1022,9 hPa 0,0 l/m 0 min 0 min 0 W/m 9,7 km/h (2 Bft) 97,87 %
09.03.2022 06:58 1,3 C 0,6 C -3,3 C 67 % 1022,9 hPa 0,0 l/m 0 min 0 min 0 W/m 6,4 km/h (2 Bft) 100,00 %
09.03.2022 07:00 1,3 C 0,6 C -3,3 C 67 % 1022,9 hPa 0,0 l/m 0 min 0 min 0 W/m 6,4 km/h (2 Bft) 100,00 %
09.03.2022 07:02 1,2 C 0,6 C -3,3 C 67 % 1023,0 hPa 0,0 l/m 0 min 0 min 4 W/m 6,4 km/h (2 Bft) 100,00 %
09.03.2022 07:04 1,2 C 0,6 C -3,3 C 68 % 1023,0 hPa 0,0 l/m 0 min 0 min 5 W/m 6,4 km/h (2 Bft) 100,00 %
09.03.2022 07:06 1,2 C 0,6 C -3,3 C 68 % 1023,0 hPa 0,0 l/m 0 min 0 min 5 W/m 12,9 km/h (3 Bft) 100,00 %
09.03.2022 07:08 1,2 C 0,0 C -3,3 C 68 % 1022,9 hPa 0,0 l/m 0 min 0 min 7 W/m 6,4 km/h (2 Bft) 100,00 %
09.03.2022 07:10 1,2 C 0,6 C -3,3 C 68 % 1022,9 hPa 0,0 l/m 0 min 0 min 7 W/m 6,4 km/h (2 Bft) 100,00 %
09.03.2022 07:12 1,2 C 0,6 C -3,3 C 68 % 1022,9 hPa 0,0 l/m 0 min 0 min 9 W/m 6,4 km/h (2 Bft) 100,00 %
09.03.2022 07:14 1,2 C 0,6 C -3,3 C 68 % 1022,9 hPa 0,0 l/m 0 min 0 min 9 W/m 6,4 km/h (2 Bft) 100,00 %
09.03.2022 07:16 1,2 C 0,6 C -3,3 C 68 % 1022,9 hPa 0,0 l/m 0 min 0 min 11 W/m 6,4 km/h (2 Bft) 100,00 %
09.03.2022 07:18 1,2 C 0,6 C -3,3 C 68 % 1022,9 hPa 0,0 l/m 0 min 0 min 11 W/m 12,9 km/h (3 Bft) 100,00 %
09.03.2022 07:20 1,1 C 0,6 C -3,3 C 68 % 1022,9 hPa 0,0 l/m 0 min 0 min 12 W/m 6,4 km/h (2 Bft) 100,00 %
09.03.2022 07:22 1,1 C 0,6 C -3,3 C 68 % 1023,0 hPa 0,0 l/m 0 min 0 min 12 W/m 6,4 km/h (2 Bft) 97,87 %
09.03.2022 07:24 1,1 C 0,6 C -2,8 C 68 % 1023,0 hPa 0,0 l/m 0 min 0 min 13 W/m 6,4 km/h (2 Bft) 100,00 %
09.03.2022 07:26 1,2 C 0,6 C -2,8 C 68 % 1023,0 hPa 0,0 l/m 0 min 0 min 14 W/m 6,4 km/h (2 Bft) 97,87 %
09.03.2022 07:28 1,1 C 0,6 C -2,8 C 68 % 1023,1 hPa 0,0 l/m 0 min 0 min 16 W/m 6,4 km/h (2 Bft) 95,74 %
09.03.2022 07:30 1,2 C 0,6 C -2,8 C 68 % 1023,1 hPa 0,0 l/m 0 min 0 min 16 W/m 16,1 km/h (3 Bft) 97,96 %
09.03.2022 07:32 1,2 C 0,6 C -2,8 C 68 % 1023,1 hPa 0,0 l/m 0 min 0 min 17 W/m 6,4 km/h (2 Bft) 97,87 %
09.03.2022 07:34 1,2 C 0,6 C -2,8 C 68 % 1023,1 hPa 0,0 l/m 0 min 0 min 18 W/m 6,4 km/h (2 Bft) 95,74 %
09.03.2022 07:36 1,2 C 0,6 C -2,8 C 68 % 1023,1 hPa 0,0 l/m 0 min 0 min 19 W/m 6,4 km/h (2 Bft) 97,87 %
09.03.2022 07:38 1,2 C 0,6 C -2,8 C 68 % 1023,1 hPa 0,0 l/m 0 min 0 min 19 W/m 6,4 km/h (2 Bft) 97,96 %
09.03.2022 07:40 1,2 C 1,1 C -2,8 C 68 % 1023,2 hPa 0,0 l/m 0 min 0 min 19 W/m 12,9 km/h (3 Bft) 97,14 %
09.03.2022 07:42 1,3 C 1,1 C -2,8 C 68 % 1023,2 hPa 0,0 l/m 0 min 0 min 21 W/m 12,9 km/h (3 Bft) 97,87 %
09.03.2022 07:44 1,3 C 1,1 C -2,8 C 68 % 1023,2 hPa 0,0 l/m 0 min 0 min 21 W/m 6,4 km/h (2 Bft) 95,74 %
09.03.2022 07:46 1,3 C 1,1 C -2,8 C 67 % 1023,2 hPa 0,0 l/m 0 min 0 min 22 W/m 12,9 km/h (3 Bft) 93,62 %
09.03.2022 07:48 1,4 C 1,1 C -2,8 C 67 % 1023,2 hPa 0,0 l/m 0 min 0 min 23 W/m 12,9 km/h (3 Bft) 95,74 %
09.03.2022 07:50 1,4 C 1,1 C -2,2 C 67 % 1023,2 hPa 0,0 l/m 0 min 0 min 23 W/m 12,9 km/h (3 Bft) 95,65 %
09.03.2022 07:52 1,5 C 1,1 C -2,2 C 67 % 1023,2 hPa 0,0 l/m 0 min 0 min 25 W/m 12,9 km/h (3 Bft) 95,74 %
09.03.2022 07:54 1,6 C 1,1 C -2,2 C 67 % 1023,2 hPa 0,0 l/m 0 min 0 min 25 W/m 12,9 km/h (3 Bft) 93,62 %
09.03.2022 07:56 1,6 C 1,1 C -2,2 C 67 % 1023,3 hPa 0,0 l/m 0 min 0 min 25 W/m 19,3 km/h (3 Bft) 95,74 %
09.03.2022 07:58 1,7 C 1,7 C -2,2 C 67 % 1023,2 hPa 0,0 l/m 0 min 0 min 26 W/m 9,7 km/h (2 Bft) 94,00 %
09.03.2022 08:00 1,7 C 1,7 C -2,2 C 67 % 1023,2 hPa 0,0 l/m 0 min 0 min 26 W/m 19,3 km/h (3 Bft) 93,48 %
09.03.2022 08:02 1,8 C 1,7 C -2,2 C 66 % 1023,3 hPa 0,0 l/m 0 min 0 min 27 W/m 12,9 km/h (3 Bft) 93,75 %
09.03.2022 08:04 1,8 C 1,7 C -2,2 C 66 % 1023,2 hPa 0,0 l/m 0 min 0 min 28 W/m 12,9 km/h (3 Bft) 93,62 %
09.03.2022 08:06 1,8 C 1,7 C -2,2 C 66 % 1023,2 hPa 0,0 l/m 0 min 0 min 28 W/m 12,9 km/h (3 Bft) 95,65 %
09.03.2022 08:08 1,9 C 1,7 C -2,2 C 66 % 1023,3 hPa 0,0 l/m 0 min 0 min 28 W/m 16,1 km/h (3 Bft) 96,00 %
09.03.2022 08:10 1,9 C 1,7 C -2,2 C 66 % 1023,3 hPa 0,0 l/m 0 min 0 min 30 W/m 16,1 km/h (3 Bft) 93,88 %
09.03.2022 08:12 2,0 C 1,7 C -2,2 C 66 % 1023,2 hPa 0,0 l/m 0 min 0 min 30 W/m 16,1 km/h (3 Bft) 93,62 %
09.03.2022 08:14 2,1 C 1,7 C -1,7 C 66 % 1023,3 hPa 0,0 l/m 0 min 0 min 31 W/m 16,1 km/h (3 Bft) 93,62 %
09.03.2022 08:16 2,1 C 2,2 C -1,7 C 66 % 1023,3 hPa 0,0 l/m 0 min 0 min 32 W/m 12,9 km/h (3 Bft) 93,62 %
09.03.2022 08:18 2,2 C 2,2 C -1,7 C 66 % 1023,3 hPa 0,0 l/m 0 min 0 min 32 W/m 12,9 km/h (3 Bft) 95,74 %
09.03.2022 08:20 2,2 C 2,2 C -1,7 C 66 % 1023,3 hPa 0,0 l/m 0 min 0 min 32 W/m 16,1 km/h (3 Bft) 93,62 %
09.03.2022 08:22 2,3 C 2,2 C -1,7 C 66 % 1023,3 hPa 0,0 l/m 0 min 0 min 33 W/m 16,1 km/h (3 Bft) 95,65 %
09.03.2022 08:24 2,3 C 2,2 C -1,7 C 66 % 1023,3 hPa 0,0 l/m 0 min 0 min 33 W/m 12,9 km/h (3 Bft) 95,74 %
09.03.2022 08:26 2,4 C 2,2 C -1,7 C 66 % 1023,3 hPa 0,0 l/m 0 min 0 min 33 W/m 16,1 km/h (3 Bft) 95,74 %
09.03.2022 08:28 2,4 C 2,2 C -1,7 C 65 % 1023,3 hPa 0,0 l/m 0 min 0 min 34 W/m 19,3 km/h (3 Bft) 95,74 %
09.03.2022 08:30 2,5 C 2,2 C -1,7 C 65 % 1023,4 hPa 0,0 l/m 0 min 0 min 35 W/m 12,9 km/h (3 Bft) 93,62 %
09.03.2022 08:32 2,6 C 2,8 C -1,7 C 65 % 1023,4 hPa 0,0 l/m 0 min 0 min 35 W/m 16,1 km/h (3 Bft) 91,49 %
09.03.2022 08:34 2,7 C 2,8 C -1,1 C 65 % 1023,4 hPa 0,0 l/m 0 min 0 min 35 W/m 22,5 km/h (4 Bft) 95,65 %
09.03.2022 08:36 2,8 C 2,8 C -1,1 C 64 % 1023,4 hPa 0,0 l/m 0 min 0 min 37 W/m 22,5 km/h (4 Bft) 97,87 %
09.03.2022 08:38 2,8 C 2,8 C -1,1 C 64 % 1023,4 hPa 0,0 l/m 0 min 0 min 37 W/m 19,3 km/h (3 Bft) 100,00 %
09.03.2022 08:40 2,9 C 2,8 C -1,1 C 64 % 1023,4 hPa 0,0 l/m 0 min 0 min 37 W/m 19,3 km/h (3 Bft) 97,87 %
09.03.2022 08:42 3,0 C 2,8 C -1,1 C 64 % 1023,5 hPa 0,0 l/m 0 min 0 min 39 W/m 16,1 km/h (3 Bft) 100,00 %
09.03.2022 08:43 3,1 C 3,3 C -1,1 C 63 % 1023,5 hPa 0,0 l/m 0 min 0 min 50 W/m 19,3 km/h (3 Bft) 97,87 %
09.03.2022 08:46 3,2 C 3,3 C -1,1 C 63 % 1023,6 hPa 0,0 l/m 3 min 0 min 152 W/m 19,3 km/h (3 Bft) 97,83 %
09.03.2022 08:48 3,2 C 3,3 C -1,1 C 63 % 1023,6 hPa 0,0 l/m 2 min 0 min 207 W/m 16,1 km/h (3 Bft) 100,00 %
09.03.2022 08:50 3,3 C 3,3 C -0,6 C 63 % 1023,6 hPa 0,0 l/m 2 min 0 min 208 W/m 22,5 km/h (4 Bft) 100,00 %
09.03.2022 08:52 3,4 C 4,4 C -0,6 C 63 % 1023,7 hPa 0,0 l/m 2 min 0 min 263 W/m 12,9 km/h (3 Bft) 97,87 %
09.03.2022 08:54 3,6 C 5,0 C -0,6 C 62 % 1023,6 hPa 0,0 l/m 2 min 0 min 267 W/m 29,0 km/h (5 Bft) 97,87 %
09.03.2022 08:56 3,8 C 6,1 C -0,6 C 62 % 1023,6 hPa 0,0 l/m 2 min 0 min 274 W/m 16,1 km/h (3 Bft) 100,00 %
09.03.2022 08:58 3,9 C 6,7 C -0,6 C 61 % 1023,7 hPa 0,0 l/m 2 min 0 min 281 W/m 19,3 km/h (3 Bft) 100,00 %
09.03.2022 09:00 4,1 C 7,2 C 0,0 C 61 % 1023,7 hPa 0,0 l/m 2 min 0 min 268 W/m 12,9 km/h (3 Bft) 100,00 %
09.03.2022 09:02 4,2 C 7,2 C 0,0 C 61 % 1023,7 hPa 0,0 l/m 2 min 0 min 283 W/m 16,1 km/h (3 Bft) 100,00 %
09.03.2022 09:04 4,4 C 7,2 C 0,0 C 60 % 1023,7 hPa 0,0 l/m 2 min 0 min 284 W/m 16,1 km/h (3 Bft) 100,00 %
09.03.2022 09:06 4,6 C 6,7 C 0,0 C 59 % 1023,8 hPa 0,0 l/m 2 min 0 min 207 W/m 22,5 km/h (4 Bft) 100,00 %
09.03.2022 09:08 4,7 C 6,1 C 0,6 C 59 % 1023,8 hPa 0,0 l/m 2 min 0 min 243 W/m 22,5 km/h (4 Bft) 100,00 %
09.03.2022 09:10 4,8 C 6,1 C 0,6 C 58 % 1023,8 hPa 0,0 l/m 2 min 0 min 306 W/m 19,3 km/h (3 Bft) 97,87 %
09.03.2022 09:12 4,9 C 6,7 C 0,6 C 58 % 1023,8 hPa 0,0 l/m 2 min 0 min 317 W/m 19,3 km/h (3 Bft) 97,87 %
09.03.2022 09:14 5,1 C 6,7 C 0,6 C 58 % 1023,9 hPa 0,0 l/m 2 min 0 min 307 W/m 19,3 km/h (3 Bft) 97,83 %
09.03.2022 09:16 5,1 C 6,1 C 0,6 C 57 % 1023,9 hPa 0,0 l/m 2 min 0 min 241 W/m 19,3 km/h (3 Bft) 100,00 %
09.03.2022 09:18 5,2 C 6,1 C 0,6 C 57 % 1023,8 hPa 0,0 l/m 2 min 0 min 225 W/m 16,1 km/h (3 Bft) 100,00 %
09.03.2022 09:20 5,3 C 6,1 C 0,6 C 57 % 1023,9 hPa 0,0 l/m 2 min 0 min 321 W/m 16,1 km/h (3 Bft) 100,00 %
09.03.2022 09:22 5,4 C 6,1 C 1,1 C 57 % 1023,9 hPa 0,0 l/m 2 min 0 min 344 W/m 19,3 km/h (3 Bft) 100,00 %
09.03.2022 09:24 5,6 C 6,1 C 1,1 C 56 % 1024,0 hPa 0,0 l/m 2 min 0 min 332 W/m 22,5 km/h (4 Bft) 97,87 %
09.03.2022 09:26 5,6 C 6,1 C 1,1 C 56 % 1024,0 hPa 0,0 l/m 2 min 0 min 323 W/m 16,1 km/h (3 Bft) 100,00 %
09.03.2022 09:28 5,7 C 6,7 C 1,1 C 56 % 1023,9 hPa 0,0 l/m 2 min 0 min 268 W/m 16,1 km/h (3 Bft) 97,87 %
09.03.2022 09:30 5,8 C 6,7 C 1,1 C 55 % 1024,0 hPa 0,0 l/m 2 min 0 min 231 W/m 22,5 km/h (4 Bft) 95,74 %
09.03.2022 09:32 5,8 C 6,7 C 1,1 C 55 % 1023,9 hPa 0,0 l/m 2 min 0 min 340 W/m 19,3 km/h (3 Bft) 95,74 %
09.03.2022 09:34 5,9 C 6,7 C 1,1 C 55 % 1024,0 hPa 0,0 l/m 2 min 0 min 332 W/m 19,3 km/h (3 Bft) 97,87 %
09.03.2022 09:36 5,9 C 7,2 C 1,1 C 55 % 1024,0 hPa 0,0 l/m 2 min 0 min 375 W/m 16,1 km/h (3 Bft) 97,87 %
09.03.2022 09:38 6,0 C 7,8 C 1,7 C 55 % 1024,0 hPa 0,0 l/m 2 min 0 min 235 W/m 19,3 km/h (3 Bft) 97,83 %
09.03.2022 09:40 6,1 C 7,8 C 1,7 C 55 % 1024,0 hPa 0,0 l/m 0 min 0 min 173 W/m 19,3 km/h (3 Bft) 95,74 %
09.03.2022 09:42 6,2 C 7,8 C 1,7 C 55 % 1024,1 hPa 0,0 l/m 0 min 0 min 132 W/m 16,1 km/h (3 Bft) 97,87 %
09.03.2022 09:44 6,2 C 7,8 C 1,7 C 54 % 1024,0 hPa 0,0 l/m 2 min 0 min 201 W/m 19,3 km/h (3 Bft) 97,87 %
09.03.2022 09:46 6,3 C 7,8 C 1,7 C 54 % 1024,0 hPa 0,0 l/m 2 min 0 min 256 W/m 22,5 km/h (4 Bft) 97,87 %
09.03.2022 09:48 6,3 C 7,2 C 1,7 C 54 % 1024,0 hPa 0,0 l/m 0 min 0 min 168 W/m 19,3 km/h (3 Bft) 94,29 %
09.03.2022 09:50 6,3 C 7,2 C 1,7 C 54 % 1024,0 hPa 0,0 l/m 0 min 0 min 94 W/m 16,1 km/h (3 Bft) 98,36 %
09.03.2022 09:52 6,4 C 7,2 C 1,7 C 54 % 1024,0 hPa 0,0 l/m 0 min 0 min 140 W/m 19,3 km/h (3 Bft) 97,87 %
09.03.2022 09:54 6,4 C 7,2 C 2,2 C 54 % 1024,0 hPa 0,0 l/m 2 min 0 min 198 W/m 22,5 km/h (4 Bft) 97,87 %
09.03.2022 09:56 6,5 C 7,8 C 2,2 C 53 % 1024,0 hPa 0,0 l/m 0 min 0 min 179 W/m 22,5 km/h (4 Bft) 97,87 %
09.03.2022 09:58 6,5 C 7,8 C 2,2 C 53 % 1024,0 hPa 0,0 l/m 2 min 0 min 344 W/m 22,5 km/h (4 Bft) 97,87 %
09.03.2022 10:00 6,5 C 7,2 C 2,2 C 53 % 1024,0 hPa 0,0 l/m 2 min 0 min 354 W/m 22,5 km/h (4 Bft) 97,83 %
09.03.2022 10:02 6,6 C 7,2 C 2,8 C 53 % 1024,0 hPa 0,0 l/m 2 min 0 min 417 W/m 19,3 km/h (3 Bft) 97,87 %
09.03.2022 10:04 6,6 C 7,8 C 2,8 C 53 % 1024,0 hPa 0,0 l/m 2 min 0 min 322 W/m 16,1 km/h (3 Bft) 100,00 %
09.03.2022 10:06 6,7 C 8,3 C 3,3 C 53 % 1024,0 hPa 0,0 l/m 2 min 0 min 324 W/m 19,3 km/h (3 Bft) 95,74 %
09.03.2022 10:08 6,7 C 9,4 C 3,3 C 53 % 1024,0 hPa 0,0 l/m 2 min 0 min 322 W/m 12,9 km/h (3 Bft) 95,74 %
09.03.2022 10:10 6,8 C 9,4 C 3,9 C 52 % 1024,0 hPa 0,0 l/m 2 min 0 min 270 W/m 25,7 km/h (4 Bft) 97,87 %
09.03.2022 10:12 6,8 C 8,9 C 4,4 C 52 % 1024,0 hPa 0,0 l/m 2 min 0 min 302 W/m 22,5 km/h (4 Bft) 100,00 %
09.03.2022 10:14 6,9 C 8,9 C 5,6 C 52 % 1024,0 hPa 0,0 l/m 2 min 0 min 298 W/m 22,5 km/h (4 Bft) 97,87 %
09.03.2022 10:16 7,0 C 9,4 C 6,1 C 53 % 1024,1 hPa 0,0 l/m 2 min 0 min 254 W/m 22,5 km/h (4 Bft) 95,74 %
09.03.2022 10:18 7,1 C 9,4 C 6,1 C 52 % 1024,0 hPa 0,0 l/m 2 min 0 min 244 W/m 22,5 km/h (4 Bft) 95,74 %
09.03.2022 10:20 7,1 C 10,0 C 6,7 C 53 % 1024,0 hPa 0,0 l/m 0 min 0 min 210 W/m 22,5 km/h (4 Bft) 97,87 %
09.03.2022 10:22 7,2 C 10,0 C 6,7 C 52 % 1024,0 hPa 0,0 l/m 0 min 0 min 205 W/m 22,5 km/h (4 Bft) 100,00 %
09.03.2022 10:24 7,3 C 10,6 C 7,2 C 52 % 1024,0 hPa 0,0 l/m 2 min 0 min 244 W/m 16,1 km/h (3 Bft) 95,65 %
09.03.2022 10:26 7,4 C 10,6 C 7,2 C 52 % 1023,9 hPa 0,0 l/m 2 min 0 min 311 W/m 25,7 km/h (4 Bft) 93,62 %
09.03.2022 10:28 7,4 C 10,6 C 7,2 C 51 % 1023,9 hPa 0,0 l/m 2 min 0 min 318 W/m 22,5 km/h (4 Bft) 97,87 %
09.03.2022 10:30 7,6 C 10,6 C 7,2 C 51 % 1024,0 hPa 0,0 l/m 2 min 0 min 420 W/m 29,0 km/h (5 Bft) 97,87 %
09.03.2022 10:32 7,6 C 11,1 C 7,2 C 51 % 1023,9 hPa 0,0 l/m 2 min 0 min 361 W/m 19,3 km/h (3 Bft) 97,87 %
09.03.2022 10:34 7,7 C 11,1 C 7,8 C 51 % 1024,0 hPa 0,0 l/m 2 min 0 min 417 W/m 22,5 km/h (4 Bft) 97,87 %
09.03.2022 10:36 7,8 C 11,7 C 7,8 C 51 % 1023,9 hPa 0,0 l/m 2 min 0 min 514 W/m 22,5 km/h (4 Bft) 95,65 %
09.03.2022 10:38 7,9 C 11,7 C 8,3 C 51 % 1023,9 hPa 0,0 l/m 2 min 0 min 519 W/m 19,3 km/h (3 Bft) 97,87 %
09.03.2022 10:40 7,9 C 11,7 C 8,3 C 51 % 1023,9 hPa 0,0 l/m 2 min 0 min 521 W/m 22,5 km/h (4 Bft) 98,00 %
09.03.2022 10:42 8,1 C 11,7 C 8,9 C 51 % 1023,9 hPa 0,0 l/m 2 min 0 min 480 W/m 22,5 km/h (4 Bft) 97,83 %
09.03.2022 10:44 8,2 C 12,2 C 9,4 C 51 % 1023,9 hPa 0,0 l/m 2 min 0 min 527 W/m 16,1 km/h (3 Bft) 97,87 %
09.03.2022 10:46 8,3 C 12,8 C 9,4 C 51 % 1023,9 hPa 0,0 l/m 2 min 0 min 507 W/m 19,3 km/h (3 Bft) 95,74 %
09.03.2022 10:48 8,4 C 13,3 C 9,4 C 50 % 1023,8 hPa 0,0 l/m 2 min 0 min 481 W/m 19,3 km/h (3 Bft) 95,74 %
09.03.2022 10:50 8,6 C 13,9 C 10,0 C 50 % 1023,9 hPa 0,0 l/m 2 min 0 min 542 W/m 16,1 km/h (3 Bft) 97,87 %
09.03.2022 10:52 8,7 C 13,9 C 10,0 C 49 % 1023,8 hPa 0,0 l/m 2 min 0 min 546 W/m 16,1 km/h (3 Bft) 95,74 %
09.03.2022 10:54 8,8 C 14,4 C 10,0 C 49 % 1023,8 hPa 0,0 l/m 2 min 0 min 548 W/m 16,1 km/h (3 Bft) 97,83 %
09.03.2022 10:56 8,9 C 13,9 C 10,0 C 49 % 1023,8 hPa 0,0 l/m 2 min 0 min 552 W/m 22,5 km/h (4 Bft) 97,87 %
09.03.2022 10:58 9,0 C 13,9 C 10,0 C 49 % 1023,8 hPa 0,0 l/m 2 min 0 min 555 W/m 25,7 km/h (4 Bft) 100,00 %
09.03.2022 11:00 9,1 C 13,9 C 10,0 C 49 % 1023,8 hPa 0,0 l/m 2 min 0 min 559 W/m 22,5 km/h (4 Bft) 100,00 %
09.03.2022 11:02 9,1 C 13,9 C 10,0 C 48 % 1023,8 hPa 0,0 l/m 2 min 0 min 562 W/m 16,1 km/h (3 Bft) 100,00 %
09.03.2022 11:04 9,2 C 13,9 C 10,6 C 48 % 1023,8 hPa 0,0 l/m 2 min 0 min 565 W/m 19,3 km/h (3 Bft) 100,00 %
09.03.2022 11:06 9,2 C 13,9 C 10,6 C 47 % 1023,8 hPa 0,0 l/m 2 min 0 min 567 W/m 25,7 km/h (4 Bft) 100,00 %
09.03.2022 11:08 9,3 C 14,4 C 11,1 C 48 % 1023,8 hPa 0,0 l/m 2 min 0 min 570 W/m 22,5 km/h (4 Bft) 100,00 %
09.03.2022 11:10 9,3 C 13,9 C 11,1 C 48 % 1023,9 hPa 0,0 l/m 2 min 0 min 574 W/m 19,3 km/h (3 Bft) 97,87 %
09.03.2022 11:12 9,4 C 14,4 C 10,6 C 47 % 1023,9 hPa 0,0 l/m 2 min 0 min 575 W/m 19,3 km/h (3 Bft) 100,00 %
09.03.2022 11:14 9,4 C 14,4 C 11,1 C 47 % 1023,8 hPa 0,0 l/m 2 min 0 min 578 W/m 22,5 km/h (4 Bft) 100,00 %
09.03.2022 11:16 9,5 C 15,6 C 11,7 C 48 % 1023,8 hPa 0,0 l/m 2 min 0 min 580 W/m 16,1 km/h (3 Bft) 100,00 %
09.03.2022 11:18 9,6 C 15,6 C 11,7 C 48 % 1023,8 hPa 0,0 l/m 2 min 0 min 583 W/m 16,1 km/h (3 Bft) 100,00 %
09.03.2022 11:20 9,7 C 16,1 C 12,2 C 48 % 1023,8 hPa 0,0 l/m 2 min 0 min 584 W/m 16,1 km/h (3 Bft) 100,00 %
09.03.2022 11:22 9,8 C 15,0 C 12,2 C 47 % 1023,8 hPa 0,0 l/m 2 min 0 min 589 W/m 25,7 km/h (4 Bft) 100,00 %
09.03.2022 11:24 9,9 C 15,0 C 12,2 C 47 % 1023,9 hPa 0,0 l/m 2 min 0 min 590 W/m 19,3 km/h (3 Bft) 100,00 %
09.03.2022 11:26 9,9 C 15,0 C 11,7 C 47 % 1023,9 hPa 0,0 l/m 2 min 0 min 593 W/m 25,7 km/h (4 Bft) 97,87 %
09.03.2022 11:28 10,0 C 15,6 C 11,7 C 47 % 1023,8 hPa 0,0 l/m 2 min 0 min 596 W/m 19,3 km/h (3 Bft) 100,00 %
09.03.2022 11:30 10,0 C 15,0 C 11,7 C 46 % 1023,9 hPa 0,0 l/m 2 min 0 min 598 W/m 25,7 km/h (4 Bft) 97,83 %
09.03.2022 11:32 10,1 C 15,6 C 11,7 C 46 % 1023,9 hPa 0,0 l/m 2 min 0 min 600 W/m 19,3 km/h (3 Bft) 95,74 %
09.03.2022 11:34 10,1 C 15,0 C 11,7 C 46 % 1023,9 hPa 0,0 l/m 2 min 0 min 601 W/m 22,5 km/h (4 Bft) 95,74 %
09.03.2022 11:36 10,1 C 14,4 C 11,7 C 46 % 1023,9 hPa 0,0 l/m 2 min 0 min 602 W/m 25,7 km/h (4 Bft) 97,87 %
09.03.2022 11:38 10,1 C 15,0 C 12,2 C 46 % 1023,9 hPa 0,0 l/m 2 min 0 min 605 W/m 19,3 km/h (3 Bft) 95,74 %
09.03.2022 11:40 10,2 C 15,6 C 12,2 C 47 % 1023,9 hPa 0,0 l/m 2 min 0 min 608 W/m 16,1 km/h (3 Bft) 97,87 %
09.03.2022 11:42 10,2 C 16,1 C 12,2 C 47 % 1023,8 hPa 0,0 l/m 2 min 0 min 610 W/m 16,1 km/h (3 Bft) 97,83 %
09.03.2022 11:44 10,3 C 16,1 C 12,2 C 47 % 1023,8 hPa 0,0 l/m 2 min 0 min 612 W/m 16,1 km/h (3 Bft) 97,87 %
09.03.2022 11:46 10,3 C 16,1 C 11,7 C 46 % 1023,8 hPa 0,0 l/m 2 min 0 min 613 W/m 19,3 km/h (3 Bft) 97,87 %
09.03.2022 11:48 10,4 C 16,1 C 11,7 C 47 % 1023,8 hPa 0,0 l/m 2 min 0 min 615 W/m 16,1 km/h (3 Bft) 97,87 %
09.03.2022 11:50 10,5 C 15,0 C 11,1 C 46 % 1023,8 hPa 0,0 l/m 2 min 0 min 617 W/m 38,6 km/h (5 Bft) 97,87 %
09.03.2022 11:52 10,6 C 14,4 C 10,6 C 46 % 1023,9 hPa 0,0 l/m 2 min 0 min 618 W/m 12,9 km/h (3 Bft) 97,87 %
09.03.2022 11:54 10,6 C 14,4 C 10,6 C 46 % 1023,8 hPa 0,0 l/m 2 min 0 min 612 W/m 25,7 km/h (4 Bft) 97,83 %
09.03.2022 11:56 10,7 C 14,4 C 10,6 C 46 % 1023,8 hPa 0,0 l/m 2 min 0 min 596 W/m 16,1 km/h (3 Bft) 97,87 %
09.03.2022 11:58 10,8 C 14,4 C 10,0 C 46 % 1023,8 hPa 0,0 l/m 2 min 0 min 611 W/m 25,7 km/h (4 Bft) 100,00 %
09.03.2022 12:02 10,8 C 13,9 C 10,6 C 46 % 1023,7 hPa 0,0 l/m 4 min 0 min 495 W/m 19,3 km/h (3 Bft) 100,00 %
09.03.2022 12:04 10,9 C 13,9 C 10,6 C 46 % 1023,7 hPa 0,0 l/m 2 min 0 min 394 W/m 22,5 km/h (4 Bft) 100,00 %
09.03.2022 12:08 10,9 C 12,8 C 9,4 C 45 % 1023,8 hPa 0,0 l/m 4 min 0 min 330 W/m 19,3 km/h (3 Bft) 100,00 %
09.03.2022 12:10 10,9 C 12,8 C 9,4 C 45 % 1023,7 hPa 0,0 l/m 2 min 0 min 340 W/m 22,5 km/h (4 Bft) 100,00 %
09.03.2022 12:12 10,9 C 12,2 C 9,4 C 46 % 1023,7 hPa 0,0 l/m 2 min 0 min 391 W/m 16,1 km/h (3 Bft) 100,00 %
09.03.2022 12:14 10,9 C 11,7 C 8,9 C 45 % 1023,7 hPa 0,0 l/m 0 min 0 min 255 W/m 16,1 km/h (3 Bft) 97,87 %
09.03.2022 12:16 10,9 C 11,7 C 9,4 C 45 % 1023,7 hPa 0,0 l/m 2 min 0 min 318 W/m 16,1 km/h (3 Bft) 97,87 %
09.03.2022 12:18 11,0 C 11,7 C 9,4 C 45 % 1023,7 hPa 0,0 l/m 2 min 0 min 306 W/m 16,1 km/h (3 Bft) 100,00 %
09.03.2022 12:20 11,0 C 12,2 C 9,4 C 46 % 1023,6 hPa 0,0 l/m 2 min 0 min 416 W/m 25,7 km/h (4 Bft) 100,00 %
09.03.2022 12:22 11,0 C 12,2 C 10,0 C 45 % 1023,6 hPa 0,0 l/m 2 min 0 min 439 W/m 22,5 km/h (4 Bft) 100,00 %
09.03.2022 12:24 11,0 C 12,2 C 10,0 C 45 % 1023,6 hPa 0,0 l/m 2 min 0 min 381 W/m 16,1 km/h (3 Bft) 100,00 %
09.03.2022 12:26 11,0 C 12,8 C 10,0 C 45 % 1023,5 hPa 0,0 l/m 2 min 0 min 410 W/m 19,3 km/h (3 Bft) 97,87 %
09.03.2022 12:28 11,0 C 12,8 C 10,6 C 45 % 1023,6 hPa 0,0 l/m 2 min 0 min 501 W/m 16,1 km/h (3 Bft) 100,00 %
09.03.2022 12:30 11,1 C 13,3 C 10,0 C 46 % 1023,6 hPa 0,0 l/m 2 min 0 min 480 W/m 12,9 km/h (3 Bft) 100,00 %
09.03.2022 12:32 11,1 C 13,3 C 10,0 C 46 % 1023,6 hPa 0,0 l/m 2 min 0 min 578 W/m 19,3 km/h (3 Bft) 100,00 %
09.03.2022 12:34 11,2 C 12,8 C 9,4 C 45 % 1023,6 hPa 0,0 l/m 2 min 0 min 637 W/m 12,9 km/h (3 Bft) 100,00 %
09.03.2022 12:36 11,2 C 12,8 C 9,4 C 45 % 1023,5 hPa 0,0 l/m 2 min 0 min 638 W/m 19,3 km/h (3 Bft) 100,00 %
09.03.2022 12:38 11,3 C 13,9 C 9,4 C 46 % 1023,4 hPa 0,0 l/m 2 min 0 min 638 W/m 16,1 km/h (3 Bft) 97,87 %
09.03.2022 12:40 11,3 C 13,9 C 9,4 C 46 % 1023,4 hPa 0,0 l/m 2 min 0 min 640 W/m 19,3 km/h (3 Bft) 100,00 %
09.03.2022 12:42 11,4 C 14,4 C 8,9 C 46 % 1023,4 hPa 0,0 l/m 2 min 0 min 640 W/m 16,1 km/h (3 Bft) 100,00 %
09.03.2022 12:44 11,5 C 15,0 C 8,9 C 46 % 1023,4 hPa 0,0 l/m 2 min 0 min 641 W/m 19,3 km/h (3 Bft) 100,00 %
09.03.2022 12:46 11,6 C 15,6 C 8,9 C 46 % 1023,4 hPa 0,0 l/m 2 min 0 min 641 W/m 16,1 km/h (3 Bft) 100,00 %
09.03.2022 12:48 11,7 C 16,1 C 8,9 C 46 % 1023,4 hPa 0,0 l/m 2 min 0 min 639 W/m 19,3 km/h (3 Bft) 100,00 %
09.03.2022 12:50 11,8 C 16,1 C 8,3 C 45 % 1023,4 hPa 0,0 l/m 2 min 0 min 641 W/m 25,7 km/h (4 Bft) 100,00 %
09.03.2022 12:52 11,8 C 17,2 C 8,3 C 45 % 1023,3 hPa 0,0 l/m 2 min 0 min 640 W/m 22,5 km/h (4 Bft) 97,87 %
09.03.2022 12:54 11,9 C 17,8 C 8,3 C 45 % 1023,4 hPa 0,0 l/m 2 min 0 min 640 W/m 19,3 km/h (3 Bft) 100,00 %
09.03.2022 12:56 11,9 C 17,8 C 8,3 C 45 % 1023,4 hPa 0,0 l/m 2 min 0 min 640 W/m 16,1 km/h (3 Bft) 100,00 %
09.03.2022 12:58 11,9 C 18,3 C 7,8 C 45 % 1023,3 hPa 0,0 l/m 2 min 0 min 640 W/m 19,3 km/h (3 Bft) 97,87 %
09.03.2022 13:00 12,0 C 19,4 C 8,3 C 46 % 1023,3 hPa 0,0 l/m 2 min 0 min 642 W/m 12,9 km/h (3 Bft) 100,00 %
09.03.2022 13:02 12,1 C 20,0 C 8,3 C 45 % 1023,3 hPa 0,0 l/m 2 min 0 min 641 W/m 19,3 km/h (3 Bft) 97,87 %
09.03.2022 13:04 12,2 C 20,6 C 8,3 C 46 % 1023,2 hPa 0,0 l/m 2 min 0 min 639 W/m 12,9 km/h (3 Bft) 97,56 %
09.03.2022 13:06 12,3 C 20,6 C 8,3 C 46 % 1023,3 hPa 0,0 l/m 2 min 0 min 638 W/m 16,1 km/h (3 Bft) 96,00 %
09.03.2022 13:08 12,4 C 20,6 C 8,3 C 45 % 1023,2 hPa 0,0 l/m 2 min 0 min 638 W/m 12,9 km/h (3 Bft) 95,74 %
09.03.2022 13:10 12,6 C 20,6 C 8,3 C 45 % 1023,2 hPa 0,0 l/m 2 min 0 min 638 W/m 16,1 km/h (3 Bft) 97,87 %
09.03.2022 13:12 12,7 C 20,0 C 8,3 C 44 % 1023,2 hPa 0,0 l/m 2 min 0 min 639 W/m 22,5 km/h (4 Bft) 95,92 %
09.03.2022 13:14 12,8 C 20,6 C 8,9 C 44 % 1023,3 hPa 0,0 l/m 2 min 0 min 637 W/m 16,1 km/h (3 Bft) 95,65 %
09.03.2022 13:16 12,8 C 21,1 C 8,9 C 44 % 1023,1 hPa 0,0 l/m 2 min 0 min 636 W/m 12,9 km/h (3 Bft) 97,62 %
09.03.2022 13:18 12,9 C 20,6 C 8,9 C 44 % 1023,2 hPa 0,0 l/m 2 min 0 min 633 W/m 22,5 km/h (4 Bft) 96,00 %
09.03.2022 13:20 12,9 C 20,6 C 8,3 C 44 % 1023,1 hPa 0,0 l/m 2 min 0 min 632 W/m 16,1 km/h (3 Bft) 97,96 %
09.03.2022 13:22 13,1 C 21,1 C 8,3 C 44 % 1023,1 hPa 0,0 l/m 2 min 0 min 633 W/m 19,3 km/h (3 Bft) 93,62 %
09.03.2022 13:24 13,2 C 21,1 C 8,9 C 44 % 1023,1 hPa 0,0 l/m 2 min 0 min 631 W/m 19,3 km/h (3 Bft) 95,12 %
09.03.2022 13:26 13,2 C 20,6 C 8,9 C 43 % 1023,1 hPa 0,0 l/m 2 min 0 min 631 W/m 19,3 km/h (3 Bft) 95,74 %
09.03.2022 13:28 13,3 C 20,0 C 8,3 C 43 % 1023,2 hPa 0,0 l/m 2 min 0 min 627 W/m 16,1 km/h (3 Bft) 94,00 %
09.03.2022 13:30 13,3 C 21,1 C 8,9 C 43 % 1023,1 hPa 0,0 l/m 2 min 0 min 626 W/m 6,4 km/h (2 Bft) 97,96 %
09.03.2022 13:32 13,4 C 21,7 C 8,9 C 43 % 1023,1 hPa 0,0 l/m 2 min 0 min 626 W/m 19,3 km/h (3 Bft) 95,74 %
09.03.2022 13:34 13,4 C 21,1 C 8,9 C 43 % 1023,1 hPa 0,0 l/m 2 min 0 min 624 W/m 19,3 km/h (3 Bft) 95,24 %
09.03.2022 13:36 13,5 C 22,2 C 8,9 C 43 % 1023,0 hPa 0,0 l/m 2 min 0 min 621 W/m 12,9 km/h (3 Bft) 95,92 %
09.03.2022 13:38 13,6 C 21,7 C 8,9 C 43 % 1023,0 hPa 0,0 l/m 2 min 0 min 621 W/m 12,9 km/h (3 Bft) 95,74 %
09.03.2022 13:40 13,7 C 21,1 C 8,9 C 42 % 1023,0 hPa 0,0 l/m 2 min 0 min 619 W/m 16,1 km/h (3 Bft) 95,74 %
09.03.2022 13:42 13,7 C 21,1 C 8,9 C 42 % 1023,0 hPa 0,0 l/m 2 min 0 min 616 W/m 16,1 km/h (3 Bft) 95,92 %
09.03.2022 13:44 13,8 C 21,1 C 8,9 C 42 % 1022,9 hPa 0,0 l/m 2 min 0 min 615 W/m 16,1 km/h (3 Bft) 95,74 %
09.03.2022 13:46 13,8 C 21,1 C 8,9 C 42 % 1023,0 hPa 0,0 l/m 2 min 0 min 616 W/m 16,1 km/h (3 Bft) 95,24 %
09.03.2022 13:48 13,8 C 21,1 C 8,9 C 42 % 1023,0 hPa 0,0 l/m 2 min 0 min 615 W/m 19,3 km/h (3 Bft) 95,92 %
09.03.2022 13:50 13,8 C 20,0 C 8,9 C 42 % 1022,9 hPa 0,0 l/m 2 min 0 min 612 W/m 22,5 km/h (4 Bft) 95,92 %
09.03.2022 13:52 13,8 C 18,9 C 8,3 C 42 % 1022,9 hPa 0,0 l/m 2 min 0 min 608 W/m 19,3 km/h (3 Bft) 97,87 %
09.03.2022 13:54 13,7 C 18,9 C 8,3 C 42 % 1022,9 hPa 0,0 l/m 2 min 0 min 606 W/m 19,3 km/h (3 Bft) 95,24 %
09.03.2022 13:56 13,7 C 18,9 C 8,9 C 42 % 1022,9 hPa 0,0 l/m 2 min 0 min 605 W/m 22,5 km/h (4 Bft) 98,00 %
09.03.2022 13:58 13,7 C 18,9 C 8,9 C 42 % 1022,8 hPa 0,0 l/m 2 min 0 min 601 W/m 19,3 km/h (3 Bft) 100,00 %
09.03.2022 14:00 13,7 C 19,4 C 8,9 C 42 % 1022,8 hPa 0,0 l/m 2 min 0 min 602 W/m 16,1 km/h (3 Bft) 100,00 %
09.03.2022 14:02 13,7 C 19,4 C 8,9 C 42 % 1022,8 hPa 0,0 l/m 2 min 0 min 601 W/m 22,5 km/h (4 Bft) 100,00 %
09.03.2022 14:04 13,7 C 19,4 C 8,9 C 42 % 1022,8 hPa 0,0 l/m 2 min 0 min 598 W/m 16,1 km/h (3 Bft) 100,00 %
09.03.2022 14:06 13,8 C 19,4 C 8,9 C 42 % 1022,8 hPa 0,0 l/m 2 min 0 min 591 W/m 12,9 km/h (3 Bft) 100,00 %
09.03.2022 14:08 13,8 C 18,9 C 8,9 C 42 % 1022,8 hPa 0,0 l/m 2 min 0 min 590 W/m 22,5 km/h (4 Bft) 97,87 %
09.03.2022 14:10 13,8 C 18,9 C 8,9 C 42 % 1022,8 hPa 0,0 l/m 2 min 0 min 588 W/m 22,5 km/h (4 Bft) 100,00 %
09.03.2022 14:12 13,9 C 19,4 C 8,9 C 42 % 1022,8 hPa 0,0 l/m 2 min 0 min 586 W/m 16,1 km/h (3 Bft) 100,00 %
09.03.2022 14:14 13,9 C 18,9 C 8,9 C 42 % 1022,7 hPa 0,0 l/m 2 min 0 min 585 W/m 16,1 km/h (3 Bft) 100,00 %
09.03.2022 14:16 13,9 C 18,9 C 8,9 C 41 % 1022,7 hPa 0,0 l/m 2 min 0 min 581 W/m 19,3 km/h (3 Bft) 100,00 %
09.03.2022 14:18 13,9 C 18,9 C 8,9 C 41 % 1022,7 hPa 0,0 l/m 2 min 0 min 576 W/m 19,3 km/h (3 Bft) 97,96 %
09.03.2022 14:20 13,9 C 18,9 C 8,9 C 42 % 1022,7 hPa 0,0 l/m 2 min 0 min 574 W/m 9,7 km/h (2 Bft) 100,00 %
09.03.2022 14:22 14,0 C 18,9 C 8,9 C 42 % 1022,7 hPa 0,0 l/m 2 min 0 min 570 W/m 16,1 km/h (3 Bft) 100,00 %
09.03.2022 14:24 14,1 C 18,3 C 8,9 C 41 % 1022,6 hPa 0,0 l/m 2 min 0 min 564 W/m 12,9 km/h (3 Bft) 98,00 %
09.03.2022 14:26 14,2 C 19,4 C 9,4 C 42 % 1022,6 hPa 0,0 l/m 2 min 0 min 563 W/m 6,4 km/h (2 Bft) 95,92 %
09.03.2022 14:28 14,3 C 18,9 C 9,4 C 42 % 1022,6 hPa 0,0 l/m 2 min 0 min 559 W/m 19,3 km/h (3 Bft) 97,87 %
09.03.2022 14:30 14,3 C 18,9 C 9,4 C 41 % 1022,6 hPa 0,0 l/m 2 min 0 min 553 W/m 22,5 km/h (4 Bft) 95,24 %
09.03.2022 14:32 14,3 C 19,4 C 9,4 C 41 % 1022,5 hPa 0,0 l/m 2 min 0 min 551 W/m 12,9 km/h (3 Bft) 97,96 %
09.03.2022 14:34 14,3 C 19,4 C 9,4 C 41 % 1022,6 hPa 0,0 l/m 2 min 0 min 550 W/m 12,9 km/h (3 Bft) 98,00 %
09.03.2022 14:36 14,3 C 19,4 C 9,4 C 41 % 1022,5 hPa 0,0 l/m 2 min 0 min 547 W/m 12,9 km/h (3 Bft) 97,83 %
09.03.2022 14:38 14,3 C 20,6 C 9,4 C 42 % 1022,5 hPa 0,0 l/m 2 min 0 min 546 W/m 6,4 km/h (2 Bft) 97,87 %
09.03.2022 14:40 14,4 C 21,1 C 9,4 C 41 % 1022,5 hPa 0,0 l/m 2 min 0 min 545 W/m 12,9 km/h (3 Bft) 97,87 %
09.03.2022 14:42 14,5 C 20,0 C 9,4 C 41 % 1022,4 hPa 0,0 l/m 2 min 0 min 540 W/m 19,3 km/h (3 Bft) 97,62 %
09.03.2022 14:44 14,5 C 20,0 C 9,4 C 41 % 1022,4 hPa 0,0 l/m 2 min 0 min 536 W/m 6,4 km/h (2 Bft) 97,96 %
09.03.2022 14:46 14,6 C 20,0 C 9,4 C 41 % 1022,4 hPa 0,0 l/m 2 min 0 min 531 W/m 22,5 km/h (4 Bft) 98,00 %
09.03.2022 14:48 14,6 C 19,4 C 9,4 C 41 % 1022,4 hPa 0,0 l/m 2 min 0 min 526 W/m 12,9 km/h (3 Bft) 97,83 %
09.03.2022 14:50 14,6 C 18,3 C 9,4 C 41 % 1022,4 hPa 0,0 l/m 2 min 0 min 524 W/m 19,3 km/h (3 Bft) 97,62 %
09.03.2022 14:52 14,6 C 17,8 C 9,4 C 40 % 1022,5 hPa 0,0 l/m 2 min 0 min 522 W/m 12,9 km/h (3 Bft) 98,00 %
09.03.2022 14:54 14,6 C 18,3 C 9,4 C 40 % 1022,5 hPa 0,0 l/m 2 min 0 min 516 W/m 12,9 km/h (3 Bft) 97,96 %
09.03.2022 14:56 14,6 C 19,4 C 9,4 C 41 % 1022,5 hPa 0,0 l/m 2 min 0 min 513 W/m 12,9 km/h (3 Bft) 95,74 %
09.03.2022 14:58 14,6 C 19,4 C 9,4 C 40 % 1022,5 hPa 0,0 l/m 2 min 0 min 507 W/m 16,1 km/h (3 Bft) 97,56 %
09.03.2022 15:00 14,6 C 19,4 C 9,4 C 40 % 1022,5 hPa 0,0 l/m 2 min 0 min 505 W/m 12,9 km/h (3 Bft) 94,00 %
09.03.2022 15:02 14,6 C 19,4 C 9,4 C 40 % 1022,5 hPa 0,0 l/m 2 min 0 min 499 W/m 19,3 km/h (3 Bft) 95,92 %
09.03.2022 15:04 14,6 C 19,4 C 9,4 C 40 % 1022,5 hPa 0,0 l/m 2 min 0 min 494 W/m 12,9 km/h (3 Bft) 95,74 %
09.03.2022 15:06 14,6 C 20,0 C 9,4 C 40 % 1022,5 hPa 0,0 l/m 2 min 0 min 489 W/m 12,9 km/h (3 Bft) 97,62 %
09.03.2022 15:08 14,7 C 19,4 C 9,4 C 40 % 1022,5 hPa 0,0 l/m 2 min 0 min 485 W/m 16,1 km/h (3 Bft) 97,83 %
09.03.2022 15:10 14,7 C 18,9 C 9,4 C 40 % 1022,5 hPa 0,0 l/m 2 min 0 min 484 W/m 9,7 km/h (2 Bft) 98,00 %
09.03.2022 15:12 14,7 C 18,9 C 9,4 C 40 % 1022,4 hPa 0,0 l/m 2 min 0 min 480 W/m 12,9 km/h (3 Bft) 97,96 %
09.03.2022 15:14 14,7 C 18,3 C 9,4 C 39 % 1022,4 hPa 0,0 l/m 2 min 0 min 475 W/m 6,4 km/h (2 Bft) 97,87 %
09.03.2022 15:16 14,7 C 17,8 C 9,4 C 39 % 1022,4 hPa 0,0 l/m 2 min 0 min 471 W/m 6,4 km/h (2 Bft) 97,62 %
09.03.2022 15:18 14,8 C 17,8 C 9,4 C 39 % 1022,4 hPa 0,0 l/m 2 min 0 min 466 W/m 19,3 km/h (3 Bft) 98,00 %
09.03.2022 15:20 14,8 C 17,8 C 9,4 C 40 % 1022,4 hPa 0,0 l/m 2 min 0 min 459 W/m 19,3 km/h (3 Bft) 100,00 %
09.03.2022 15:22 14,8 C 18,3 C 9,4 C 39 % 1022,4 hPa 0,0 l/m 2 min 0 min 456 W/m 16,1 km/h (3 Bft) 100,00 %
09.03.2022 15:24 14,8 C 19,4 C 9,4 C 39 % 1022,4 hPa 0,0 l/m 2 min 0 min 453 W/m 12,9 km/h (3 Bft) 100,00 %
09.03.2022 15:26 14,8 C 20,0 C 9,4 C 39 % 1022,4 hPa 0,0 l/m 2 min 0 min 448 W/m 16,1 km/h (3 Bft) 100,00 %
09.03.2022 15:28 14,8 C 19,4 C 9,4 C 39 % 1022,4 hPa 0,0 l/m 2 min 0 min 442 W/m 12,9 km/h (3 Bft) 100,00 %
09.03.2022 15:30 14,8 C 20,0 C 9,4 C 39 % 1022,4 hPa 0,0 l/m 2 min 0 min 435 W/m 12,9 km/h (3 Bft) 100,00 %
09.03.2022 15:32 14,8 C 21,1 C 9,4 C 39 % 1022,4 hPa 0,0 l/m 2 min 0 min 430 W/m 12,9 km/h (3 Bft) 100,00 %
09.03.2022 15:34 14,9 C 21,7 C 9,4 C 39 % 1022,4 hPa 0,0 l/m 2 min 0 min 427 W/m 6,4 km/h (2 Bft) 100,00 %
09.03.2022 15:36 14,9 C 21,7 C 9,4 C 39 % 1022,3 hPa 0,0 l/m 2 min 0 min 425 W/m 12,9 km/h (3 Bft) 97,96 %
09.03.2022 15:38 14,9 C 21,1 C 9,4 C 39 % 1022,4 hPa 0,0 l/m 2 min 0 min 422 W/m 12,9 km/h (3 Bft) 97,87 %
09.03.2022 15:40 14,9 C 21,1 C 9,4 C 39 % 1022,3 hPa 0,0 l/m 2 min 0 min 417 W/m 22,5 km/h (4 Bft) 95,74 %
09.03.2022 15:42 14,9 C 20,0 C 9,4 C 38 % 1022,3 hPa 0,0 l/m 2 min 0 min 410 W/m 16,1 km/h (3 Bft) 97,87 %
09.03.2022 15:44 14,8 C 20,0 C 9,4 C 38 % 1022,3 hPa 0,0 l/m 2 min 0 min 404 W/m 19,3 km/h (3 Bft) 97,56 %
09.03.2022 15:46 14,8 C 20,0 C 9,4 C 39 % 1022,3 hPa 0,0 l/m 2 min 0 min 399 W/m 16,1 km/h (3 Bft) 98,00 %
09.03.2022 15:48 14,8 C 20,6 C 9,4 C 39 % 1022,3 hPa 0,0 l/m 2 min 0 min 394 W/m 12,9 km/h (3 Bft) 95,92 %
09.03.2022 15:50 14,8 C 20,6 C 9,4 C 39 % 1022,4 hPa 0,0 l/m 2 min 0 min 389 W/m 12,9 km/h (3 Bft) 97,87 %
09.03.2022 15:52 14,8 C 20,6 C 9,4 C 39 % 1022,3 hPa 0,0 l/m 2 min 0 min 382 W/m 12,9 km/h (3 Bft) 97,62 %
09.03.2022 15:54 14,8 C 20,6 C 9,4 C 38 % 1022,2 hPa 0,0 l/m 2 min 0 min 377 W/m 12,9 km/h (3 Bft) 97,96 %
09.03.2022 15:56 14,8 C 20,6 C 9,4 C 39 % 1022,2 hPa 0,0 l/m 2 min 0 min 372 W/m 12,9 km/h (3 Bft) 98,00 %
09.03.2022 15:58 14,8 C 20,6 C 8,9 C 39 % 1022,3 hPa 0,0 l/m 2 min 0 min 368 W/m 12,9 km/h (3 Bft) 97,83 %
09.03.2022 16:00 14,8 C 20,0 C 8,9 C 39 % 1022,2 hPa 0,0 l/m 2 min 0 min 364 W/m 16,1 km/h (3 Bft) 95,74 %
09.03.2022 16:02 14,8 C 20,6 C 8,9 C 39 % 1022,2 hPa 0,0 l/m 2 min 0 min 358 W/m 9,7 km/h (2 Bft) 97,30 %
09.03.2022 16:04 14,9 C 21,1 C 8,9 C 39 % 1022,2 hPa 0,0 l/m 2 min 0 min 354 W/m 6,4 km/h (2 Bft) 96,36 %
09.03.2022 16:06 14,9 C 20,6 C 8,9 C 38 % 1022,2 hPa 0,0 l/m 2 min 0 min 349 W/m 12,9 km/h (3 Bft) 97,96 %
09.03.2022 16:08 14,9 C 20,0 C 8,9 C 39 % 1022,2 hPa 0,0 l/m 2 min 0 min 340 W/m 12,9 km/h (3 Bft) 95,92 %
09.03.2022 16:10 14,9 C 20,0 C 8,9 C 39 % 1022,2 hPa 0,0 l/m 2 min 0 min 334 W/m 6,4 km/h (2 Bft) 97,83 %
09.03.2022 16:12 14,9 C 20,0 C 8,9 C 39 % 1022,2 hPa 0,0 l/m 2 min 0 min 329 W/m 16,1 km/h (3 Bft) 97,14 %
09.03.2022 16:14 14,9 C 20,0 C 8,9 C 39 % 1022,2 hPa 0,0 l/m 2 min 0 min 325 W/m 12,9 km/h (3 Bft) 98,18 %
09.03.2022 16:16 14,9 C 20,0 C 8,9 C 39 % 1022,2 hPa 0,0 l/m 2 min 0 min 319 W/m 12,9 km/h (3 Bft) 97,96 %
09.03.2022 16:18 14,9 C 19,4 C 8,9 C 39 % 1022,2 hPa 0,0 l/m 2 min 0 min 314 W/m 6,4 km/h (2 Bft) 95,92 %
09.03.2022 16:20 14,9 C 19,4 C 8,9 C 39 % 1022,2 hPa 0,0 l/m 2 min 0 min 307 W/m 12,9 km/h (3 Bft) 97,14 %
09.03.2022 16:22 14,9 C 17,8 C 8,9 C 38 % 1022,2 hPa 0,0 l/m 2 min 0 min 302 W/m 12,9 km/h (3 Bft) 96,30 %
09.03.2022 16:24 14,9 C 16,1 C 8,9 C 38 % 1022,1 hPa 0,0 l/m 2 min 0 min 295 W/m 12,9 km/h (3 Bft) 98,00 %
09.03.2022 16:26 14,8 C 15,0 C 8,9 C 38 % 1022,1 hPa 0,0 l/m 2 min 0 min 288 W/m 12,9 km/h (3 Bft) 95,83 %
09.03.2022 16:28 14,8 C 14,4 C 8,9 C 38 % 1022,1 hPa 0,0 l/m 2 min 0 min 283 W/m 6,4 km/h (2 Bft) 97,14 %
09.03.2022 16:30 14,7 C 13,9 C 8,9 C 38 % 1022,1 hPa 0,0 l/m 2 min 0 min 277 W/m 9,7 km/h (2 Bft) 98,15 %
09.03.2022 16:32 14,8 C 13,9 C 8,9 C 38 % 1022,1 hPa 0,0 l/m 2 min 0 min 269 W/m 12,9 km/h (3 Bft) 96,00 %
09.03.2022 16:34 14,7 C 13,3 C 8,9 C 38 % 1022,1 hPa 0,0 l/m 2 min 0 min 262 W/m 12,9 km/h (3 Bft) 97,92 %
09.03.2022 16:36 14,7 C 13,3 C 8,3 C 38 % 1022,1 hPa 0,0 l/m 2 min 0 min 258 W/m 6,4 km/h (2 Bft) 91,43 %
09.03.2022 16:38 14,6 C 13,3 C 8,9 C 38 % 1022,1 hPa 0,0 l/m 2 min 0 min 247 W/m 12,9 km/h (3 Bft) 97,87 %
09.03.2022 16:40 14,6 C 13,3 C 8,3 C 37 % 1022,2 hPa 0,0 l/m 2 min 0 min 238 W/m 12,9 km/h (3 Bft) 97,87 %
09.03.2022 16:42 14,4 C 12,8 C 8,3 C 37 % 1022,2 hPa 0,0 l/m 2 min 0 min 232 W/m 12,9 km/h (3 Bft) 98,15 %
09.03.2022 16:44 14,3 C 12,8 C 8,3 C 37 % 1022,2 hPa 0,0 l/m 2 min 0 min 227 W/m 9,7 km/h (2 Bft) 98,00 %
09.03.2022 16:46 14,3 C 12,8 C 8,3 C 38 % 1022,2 hPa 0,0 l/m 2 min 0 min 217 W/m 12,9 km/h (3 Bft) 97,50 %
09.03.2022 16:50 14,1 C 12,8 C 8,3 C 38 % 1022,2 hPa 0,0 l/m 4 min 0 min 209 W/m 12,9 km/h (3 Bft) 97,85 %
09.03.2022 16:52 14,1 C 12,8 C 8,3 C 38 % 1022,2 hPa 0,0 l/m 2 min 0 min 199 W/m 6,4 km/h (2 Bft) 97,87 %
09.03.2022 16:54 14,0 C 12,8 C 8,3 C 38 % 1022,2 hPa 0,0 l/m 2 min 0 min 194 W/m 9,7 km/h (2 Bft) 97,87 %
09.03.2022 16:56 13,9 C 12,8 C 8,3 C 38 % 1022,3 hPa 0,0 l/m 2 min 0 min 188 W/m 6,4 km/h (2 Bft) 94,55 %
09.03.2022 16:58 13,9 C 12,8 C 8,3 C 39 % 1022,2 hPa 0,0 l/m 2 min 0 min 180 W/m 6,4 km/h (2 Bft) 100,00 %
09.03.2022 17:00 13,8 C 12,8 C 8,3 C 39 % 1022,2 hPa 0,0 l/m 2 min 0 min 177 W/m 6,4 km/h (2 Bft) 100,00 %
09.03.2022 17:05 13,6 C 12,2 C 7,8 C 39 % 1022,2 hPa 0,0 l/m 5 min 0 min 160 W/m 16,1 km/h (3 Bft) 100,00 %
09.03.2022 17:10 13,4 C 12,2 C 7,8 C 40 % 1022,2 hPa 0,0 l/m 5 min 0 min 134 W/m 9,7 km/h (2 Bft) 99,12 %
09.03.2022 17:14 13,3 C 12,2 C 7,8 C 41 % 1022,2 hPa 0,0 l/m 0 min 0 min 42 W/m 6,4 km/h (2 Bft) 97,66 %
09.03.2022 17:16 13,3 C 12,2 C 7,8 C 40 % 1022,2 hPa 0,0 l/m 0 min 0 min 42 W/m 19,3 km/h (3 Bft) 96,83 %
09.03.2022 17:18 13,2 C 12,2 C 7,8 C 41 % 1022,2 hPa 0,0 l/m 0 min 0 min 40 W/m 3,2 km/h (1 Bft) 95,74 %
09.03.2022 17:20 13,1 C 12,2 C 7,8 C 40 % 1022,3 hPa 0,0 l/m 0 min 0 min 40 W/m 6,4 km/h (2 Bft) 100,00 %
09.03.2022 17:22 13,1 C 12,2 C 7,8 C 40 % 1022,3 hPa 0,0 l/m 0 min 0 min 39 W/m 12,9 km/h (3 Bft) 97,87 %
09.03.2022 17:24 13,0 C 12,2 C 7,8 C 41 % 1022,3 hPa 0,0 l/m 0 min 0 min 39 W/m 6,4 km/h (2 Bft) 97,83 %
09.03.2022 17:26 12,9 C 12,2 C 7,8 C 41 % 1022,3 hPa 0,0 l/m 0 min 0 min 39 W/m 6,4 km/h (2 Bft) 97,87 %
09.03.2022 17:28 12,9 C 11,7 C 7,2 C 42 % 1022,3 hPa 0,0 l/m 0 min 0 min 37 W/m 6,4 km/h (2 Bft) 97,87 %
09.03.2022 17:30 12,8 C 11,7 C 7,2 C 41 % 1022,3 hPa 0,0 l/m 0 min 0 min 36 W/m 6,4 km/h (2 Bft) 97,87 %
09.03.2022 17:32 12,7 C 11,7 C 7,2 C 42 % 1022,3 hPa 0,0 l/m 0 min 0 min 35 W/m 6,4 km/h (2 Bft) 97,87 %
09.03.2022 17:34 12,7 C 11,7 C 7,2 C 41 % 1022,3 hPa 0,0 l/m 0 min 0 min 34 W/m 12,9 km/h (3 Bft) 95,74 %
09.03.2022 17:36 12,6 C 11,7 C 7,2 C 41 % 1022,4 hPa 0,0 l/m 0 min 0 min 33 W/m 3,2 km/h (1 Bft) 97,83 %
09.03.2022 17:38 12,6 C 11,7 C 7,2 C 42 % 1022,4 hPa 0,0 l/m 0 min 0 min 33 W/m 6,4 km/h (2 Bft) 97,87 %
09.03.2022 17:40 12,6 C 11,7 C 7,2 C 42 % 1022,4 hPa 0,0 l/m 0 min 0 min 32 W/m 6,4 km/h (2 Bft) 97,87 %
09.03.2022 17:42 12,5 C 11,7 C 7,2 C 42 % 1022,4 hPa 0,0 l/m 0 min 0 min 32 W/m 6,4 km/h (2 Bft) 100,00 %
09.03.2022 17:44 12,5 C 11,1 C 7,2 C 42 % 1022,4 hPa 0,0 l/m 0 min 0 min 32 W/m 6,4 km/h (2 Bft) 97,87 %
09.03.2022 17:46 12,4 C 11,1 C 6,7 C 42 % 1022,5 hPa 0,0 l/m 0 min 0 min 33 W/m 3,2 km/h (1 Bft) 95,74 %
09.03.2022 17:48 12,4 C 11,1 C 6,7 C 42 % 1022,4 hPa 0,0 l/m 0 min 0 min 32 W/m 6,4 km/h (2 Bft) 97,83 %
09.03.2022 17:50 12,3 C 11,1 C 6,7 C 43 % 1022,5 hPa 0,0 l/m 0 min 0 min 28 W/m 3,2 km/h (1 Bft) 97,87 %
09.03.2022 17:52 12,3 C 11,1 C 6,7 C 43 % 1022,4 hPa 0,0 l/m 0 min 0 min 25 W/m 3,2 km/h (1 Bft) 97,87 %
09.03.2022 17:54 12,3 C 10,6 C 6,7 C 43 % 1022,4 hPa 0,0 l/m 0 min 0 min 25 W/m 3,2 km/h (1 Bft) 97,87 %
09.03.2022 17:56 12,2 C 10,6 C 6,7 C 43 % 1022,4 hPa 0,0 l/m 0 min 0 min 25 W/m 6,4 km/h (2 Bft) 95,74 %
09.03.2022 17:58 12,1 C 10,6 C 6,7 C 43 % 1022,4 hPa 0,0 l/m 0 min 0 min 25 W/m 9,7 km/h (2 Bft) 97,87 %
09.03.2022 18:00 12,1 C 10,6 C 6,7 C 43 % 1022,4 hPa 0,0 l/m 0 min 0 min 23 W/m 6,4 km/h (2 Bft) 97,83 %
09.03.2022 18:02 11,9 C 10,6 C 6,7 C 43 % 1022,4 hPa 0,0 l/m 0 min 0 min 20 W/m 3,2 km/h (1 Bft) 97,87 %
09.03.2022 18:04 11,9 C 10,6 C 6,7 C 43 % 1022,4 hPa 0,0 l/m 0 min 0 min 19 W/m 6,4 km/h (2 Bft) 95,74 %
09.03.2022 18:08 11,8 C 10,6 C 6,1 C 43 % 1022,4 hPa 0,0 l/m 0 min 0 min 17 W/m 12,9 km/h (3 Bft) 94,68 %
09.03.2022 18:10 11,7 C 10,6 C 6,1 C 43 % 1022,4 hPa 0,0 l/m 0 min 0 min 15 W/m 6,4 km/h (2 Bft) 97,87 %
09.03.2022 18:12 11,7 C 10,0 C 6,1 C 43 % 1022,4 hPa 0,0 l/m 0 min 0 min 14 W/m 6,4 km/h (2 Bft) 97,83 %
09.03.2022 18:14 11,6 C 10,0 C 6,1 C 44 % 1022,4 hPa 0,0 l/m 0 min 0 min 14 W/m 3,2 km/h (1 Bft) 97,87 %
09.03.2022 18:16 11,5 C 10,0 C 6,1 C 44 % 1022,5 hPa 0,0 l/m 0 min 0 min 12 W/m 3,2 km/h (1 Bft) 97,87 %
09.03.2022 18:18 11,4 C 10,0 C 5,6 C 44 % 1022,5 hPa 0,0 l/m 0 min 0 min 11 W/m 6,4 km/h (2 Bft) 97,87 %
09.03.2022 18:20 11,3 C 10,0 C 5,6 C 43 % 1022,5 hPa 0,0 l/m 0 min 0 min 10 W/m 3,2 km/h (1 Bft) 97,87 %
09.03.2022 18:22 11,3 C 9,4 C 5,6 C 44 % 1022,5 hPa 0,0 l/m 0 min 0 min 8 W/m 3,2 km/h (1 Bft) 97,87 %
09.03.2022 18:24 11,2 C 9,4 C 5,6 C 44 % 1022,6 hPa 0,0 l/m 0 min 0 min 7 W/m 3,2 km/h (1 Bft) 95,65 %
09.03.2022 18:26 11,1 C 9,4 C 5,6 C 44 % 1022,6 hPa 0,0 l/m 0 min 0 min 5 W/m 6,4 km/h (2 Bft) 97,87 %
09.03.2022 18:28 11,1 C 9,4 C 5,6 C 44 % 1022,7 hPa 0,0 l/m 0 min 0 min 5 W/m 3,2 km/h (1 Bft) 97,87 %
09.03.2022 18:30 11,0 C 9,4 C 5,6 C 44 % 1022,7 hPa 0,0 l/m 0 min 0 min 0 W/m 3,2 km/h (1 Bft) 97,87 %
09.03.2022 18:32 10,9 C 9,4 C 5,0 C 45 % 1022,7 hPa 0,0 l/m 0 min 0 min 0 W/m 3,2 km/h (1 Bft) 97,87 %
09.03.2022 18:34 10,9 C 8,9 C 5,0 C 45 % 1022,7 hPa 0,0 l/m 0 min 0 min 0 W/m 3,2 km/h (1 Bft) 97,83 %
09.03.2022 18:36 10,8 C 8,9 C 5,0 C 45 % 1022,7 hPa 0,0 l/m 0 min 0 min 0 W/m 3,2 km/h (1 Bft) 97,87 %
09.03.2022 18:38 10,8 C 8,3 C 4,4 C 46 % 1022,8 hPa 0,0 l/m 0 min 0 min 0 W/m 3,2 km/h (1 Bft) 97,87 %
09.03.2022 18:40 10,7 C 8,3 C 4,4 C 46 % 1022,8 hPa 0,0 l/m 0 min 0 min 0 W/m 3,2 km/h (1 Bft) 95,74 %
09.03.2022 18:42 10,6 C 8,3 C 4,4 C 45 % 1022,8 hPa 0,0 l/m 0 min 0 min 0 W/m 3,2 km/h (1 Bft) 95,74 %
09.03.2022 18:44 10,5 C 8,3 C 4,4 C 45 % 1022,8 hPa 0,0 l/m 0 min 0 min 0 W/m 6,4 km/h (2 Bft) 100,00 %
09.03.2022 18:46 10,4 C 8,3 C 4,4 C 46 % 1022,8 hPa 0,0 l/m 0 min 0 min 0 W/m 3,2 km/h (1 Bft) 97,83 %
09.03.2022 18:48 10,3 C 8,3 C 4,4 C 46 % 1022,8 hPa 0,0 l/m 0 min 0 min 0 W/m 3,2 km/h (1 Bft) 100,00 %
09.03.2022 18:50 10,3 C 8,3 C 4,4 C 46 % 1022,8 hPa 0,0 l/m 0 min 0 min 0 W/m 3,2 km/h (1 Bft) 97,87 %
09.03.2022 18:52 10,2 C 8,3 C 3,9 C 46 % 1022,9 hPa 0,0 l/m 0 min 0 min 0 W/m 3,2 km/h (1 Bft) 95,74 %
09.03.2022 18:54 10,1 C 7,8 C 3,9 C 46 % 1022,9 hPa 0,0 l/m 0 min 0 min 0 W/m 3,2 km/h (1 Bft) 100,00 %
09.03.2022 18:56 10,1 C 8,3 C 3,9 C 46 % 1022,9 hPa 0,0 l/m 0 min 0 min 0 W/m 3,2 km/h (1 Bft) 97,87 %
09.03.2022 18:58 10,1 C 7,8 C 3,9 C 46 % 1022,9 hPa 0,0 l/m 0 min 0 min 0 W/m 3,2 km/h (1 Bft) 97,83 %
09.03.2022 19:00 10,0 C 8,3 C 3,9 C 47 % 1023,0 hPa 0,0 l/m 0 min 0 min 0 W/m 3,2 km/h (1 Bft) 93,62 %
09.03.2022 19:02 9,9 C 8,3 C 3,9 C 46 % 1023,0 hPa 0,0 l/m 0 min 0 min 0 W/m 3,2 km/h (1 Bft) 97,87 %
09.03.2022 19:04 9,9 C 8,3 C 3,9 C 46 % 1023,0 hPa 0,0 l/m 0 min 0 min 0 W/m 3,2 km/h (1 Bft) 95,74 %
09.03.2022 19:06 9,9 C 8,3 C 3,9 C 46 % 1023,0 hPa 0,0 l/m 0 min 0 min 0 W/m 3,2 km/h (1 Bft) 97,87 %
09.03.2022 19:08 9,8 C 8,3 C 3,9 C 46 % 1023,0 hPa 0,0 l/m 0 min 0 min 0 W/m 3,2 km/h (1 Bft) 97,87 %
09.03.2022 19:10 9,8 C 8,3 C 4,4 C 47 % 1023,0 hPa 0,0 l/m 0 min 0 min 0 W/m 6,4 km/h (2 Bft) 97,83 %
09.03.2022 19:12 9,8 C 8,3 C 4,4 C 47 % 1023,1 hPa 0,0 l/m 0 min 0 min 0 W/m 6,4 km/h (2 Bft) 95,74 %
09.03.2022 19:14 9,8 C 8,3 C 4,4 C 46 % 1023,0 hPa 0,0 l/m 0 min 0 min 0 W/m 3,2 km/h (1 Bft) 95,74 %
09.03.2022 19:16 9,8 C 8,3 C 4,4 C 47 % 1023,1 hPa 0,0 l/m 0 min 0 min 0 W/m 6,4 km/h (2 Bft) 97,87 %
09.03.2022 19:18 9,8 C 8,3 C 4,4 C 47 % 1023,1 hPa 0,0 l/m 0 min 0 min 0 W/m 3,2 km/h (1 Bft) 95,74 %
09.03.2022 19:20 9,7 C 8,3 C 3,9 C 47 % 1023,2 hPa 0,0 l/m 0 min 0 min 0 W/m 3,2 km/h (1 Bft) 97,87 %
09.03.2022 19:22 9,7 C 8,3 C 3,9 C 48 % 1023,2 hPa 0,0 l/m 0 min 0 min 0 W/m 3,2 km/h (1 Bft) 97,83 %
09.03.2022 19:24 9,7 C 8,3 C 3,9 C 48 % 1023,2 hPa 0,0 l/m 0 min 0 min 0 W/m 3,2 km/h (1 Bft) 95,74 %
09.03.2022 19:26 9,6 C 8,3 C 3,9 C 47 % 1023,2 hPa 0,0 l/m 0 min 0 min 0 W/m 3,2 km/h (1 Bft) 97,87 %
09.03.2022 19:28 9,6 C 7,8 C 3,9 C 47 % 1023,2 hPa 0,0 l/m 0 min 0 min 0 W/m 3,2 km/h (1 Bft) 97,87 %
09.03.2022 19:30 9,6 C 7,8 C 3,9 C 48 % 1023,2 hPa 0,0 l/m 0 min 0 min 0 W/m 3,2 km/h (1 Bft) 95,74 %
09.03.2022 19:32 9,5 C 7,8 C 3,3 C 48 % 1023,2 hPa 0,0 l/m 0 min 0 min 0 W/m 3,2 km/h (1 Bft) 95,74 %
09.03.2022 19:34 9,4 C 7,8 C 3,3 C 48 % 1023,2 hPa 0,0 l/m 0 min 0 min 0 W/m 3,2 km/h (1 Bft) 97,83 %
09.03.2022 19:36 9,3 C 7,8 C 3,3 C 48 % 1023,3 hPa 0,0 l/m 0 min 0 min 0 W/m 0,0 km/h (0 Bft) 95,74 %
09.03.2022 19:38 9,3 C 7,8 C 3,3 C 48 % 1023,3 hPa 0,0 l/m 0 min 0 min 0 W/m 12,9 km/h (3 Bft) 97,87 %
09.03.2022 19:40 9,2 C 7,8 C 3,3 C 49 % 1023,2 hPa 0,0 l/m 0 min 0 min 0 W/m 3,2 km/h (1 Bft) 97,87 %
09.03.2022 19:42 9,2 C 7,8 C 3,3 C 49 % 1023,2 hPa 0,0 l/m 0 min 0 min 0 W/m 6,4 km/h (2 Bft) 97,87 %
09.03.2022 19:44 9,1 C 7,8 C 3,3 C 49 % 1023,2 hPa 0,0 l/m 0 min 0 min 0 W/m 6,4 km/h (2 Bft) 97,87 %
09.03.2022 19:46 9,1 C 7,8 C 3,3 C 50 % 1023,2 hPa 0,0 l/m 0 min 0 min 0 W/m 6,4 km/h (2 Bft) 95,65 %
09.03.2022 19:48 9,1 C 7,8 C 3,3 C 49 % 1023,2 hPa 0,0 l/m 0 min 0 min 0 W/m 6,4 km/h (2 Bft) 97,87 %
09.03.2022 19:50 9,1 C 7,8 C 3,9 C 49 % 1023,2 hPa 0,0 l/m 0 min 0 min 0 W/m 12,9 km/h (3 Bft) 97,87 %
09.03.2022 19:52 9,0 C 7,8 C 3,3 C 50 % 1023,2 hPa 0,0 l/m 0 min 0 min 0 W/m 6,4 km/h (2 Bft) 97,87 %
09.03.2022 19:54 9,0 C 7,8 C 3,9 C 49 % 1023,2 hPa 0,0 l/m 0 min 0 min 0 W/m 6,4 km/h (2 Bft) 100,00 %
09.03.2022 19:56 9,0 C 7,8 C 3,9 C 49 % 1023,2 hPa 0,0 l/m 0 min 0 min 0 W/m 3,2 km/h (1 Bft) 100,00 %
09.03.2022 19:58 9,0 C 7,8 C 3,9 C 49 % 1023,3 hPa 0,0 l/m 0 min 0 min 0 W/m 3,2 km/h (1 Bft) 100,00 %
09.03.2022 20:00 8,9 C 7,8 C 3,3 C 49 % 1023,2 hPa 0,0 l/m 0 min 0 min 0 W/m 3,2 km/h (1 Bft) 100,00 %
09.03.2022 20:02 8,9 C 7,8 C 3,3 C 50 % 1023,3 hPa 0,0 l/m 0 min 0 min 0 W/m 3,2 km/h (1 Bft) 97,87 %
09.03.2022 20:04 8,9 C 7,8 C 3,3 C 50 % 1023,2 hPa 0,0 l/m 0 min 0 min 0 W/m 6,4 km/h (2 Bft) 100,00 %
09.03.2022 20:06 8,9 C 7,8 C 3,9 C 49 % 1023,2 hPa 0,0 l/m 0 min 0 min 0 W/m 3,2 km/h (1 Bft) 100,00 %
09.03.2022 20:08 8,8 C 7,8 C 3,3 C 50 % 1023,2 hPa 0,0 l/m 0 min 0 min 0 W/m 3,2 km/h (1 Bft) 97,87 %
09.03.2022 20:10 8,8 C 7,8 C 3,3 C 50 % 1023,3 hPa 0,0 l/m 0 min 0 min 0 W/m 6,4 km/h (2 Bft) 100,00 %
09.03.2022 20:12 8,8 C 7,8 C 3,3 C 50 % 1023,2 hPa 0,0 l/m 0 min 0 min 0 W/m 3,2 km/h (1 Bft) 100,00 %
09.03.2022 20:14 8,8 C 7,2 C 3,3 C 50 % 1023,2 hPa 0,0 l/m 0 min 0 min 0 W/m 6,4 km/h (2 Bft) 100,00 %
09.03.2022 20:16 8,8 C 7,2 C 3,3 C 50 % 1023,3 hPa 0,0 l/m 0 min 0 min 0 W/m 3,2 km/h (1 Bft) 100,00 %
09.03.2022 20:18 8,7 C 7,2 C 3,3 C 50 % 1023,3 hPa 0,0 l/m 0 min 0 min 0 W/m 6,4 km/h (2 Bft) 97,87 %
09.03.2022 20:20 8,7 C 7,8 C 3,3 C 50 % 1023,3 hPa 0,0 l/m 0 min 0 min 0 W/m 3,2 km/h (1 Bft) 100,00 %
09.03.2022 20:22 8,7 C 7,2 C 3,3 C 50 % 1023,3 hPa 0,0 l/m 0 min 0 min 0 W/m 3,2 km/h (1 Bft) 100,00 %
09.03.2022 20:24 8,7 C 7,2 C 3,3 C 50 % 1023,3 hPa 0,0 l/m 0 min 0 min 0 W/m 6,4 km/h (2 Bft) 100,00 %
09.03.2022 20:26 8,7 C 7,2 C 3,3 C 50 % 1023,3 hPa 0,0 l/m 0 min 0 min 0 W/m 6,4 km/h (2 Bft) 100,00 %
09.03.2022 20:28 8,6 C 7,2 C 3,3 C 50 % 1023,3 hPa 0,0 l/m 0 min 0 min 0 W/m 6,4 km/h (2 Bft) 100,00 %
09.03.2022 20:30 8,6 C 7,2 C 3,3 C 51 % 1023,3 hPa 0,0 l/m 0 min 0 min 0 W/m 3,2 km/h (1 Bft) 100,00 %
09.03.2022 20:32 8,6 C 7,2 C 3,3 C 50 % 1023,3 hPa 0,0 l/m 0 min 0 min 0 W/m 6,4 km/h (2 Bft) 100,00 %
09.03.2022 20:34 8,6 C 7,2 C 3,3 C 51 % 1023,3 hPa 0,0 l/m 0 min 0 min 0 W/m 3,2 km/h (1 Bft) 97,83 %
09.03.2022 20:36 8,5 C 7,2 C 3,3 C 51 % 1023,2 hPa 0,0 l/m 0 min 0 min 0 W/m 6,4 km/h (2 Bft) 100,00 %
09.03.2022 20:38 8,4 C 7,2 C 3,3 C 51 % 1023,2 hPa 0,0 l/m 0 min 0 min 0 W/m 6,4 km/h (2 Bft) 97,87 %
09.03.2022 20:40 8,4 C 7,2 C 3,3 C 51 % 1023,3 hPa 0,0 l/m 0 min 0 min 0 W/m 6,4 km/h (2 Bft) 95,74 %
09.03.2022 20:42 8,3 C 7,2 C 3,3 C 51 % 1023,2 hPa 0,0 l/m 0 min 0 min 0 W/m 6,4 km/h (2 Bft) 97,87 %
09.03.2022 20:44 8,3 C 7,2 C 3,3 C 52 % 1023,3 hPa 0,0 l/m 0 min 0 min 0 W/m 3,2 km/h (1 Bft) 100,00 %
09.03.2022 20:46 8,3 C 7,2 C 3,3 C 52 % 1023,3 hPa 0,0 l/m 0 min 0 min 0 W/m 3,2 km/h (1 Bft) 97,83 %
09.03.2022 20:48 8,2 C 6,7 C 2,8 C 52 % 1023,3 hPa 0,0 l/m 0 min 0 min 0 W/m 3,2 km/h (1 Bft) 97,87 %
09.03.2022 20:50 8,2 C 6,7 C 2,8 C 52 % 1023,4 hPa 0,0 l/m 0 min 0 min 0 W/m 6,4 km/h (2 Bft) 97,87 %
09.03.2022 20:52 8,2 C 6,7 C 2,8 C 52 % 1023,4 hPa 0,0 l/m 0 min 0 min 0 W/m 3,2 km/h (1 Bft) 97,87 %
09.03.2022 20:54 8,1 C 6,7 C 2,8 C 52 % 1023,4 hPa 0,0 l/m 0 min 0 min 0 W/m 3,2 km/h (1 Bft) 97,87 %
09.03.2022 20:56 8,1 C 6,7 C 2,8 C 52 % 1023,4 hPa 0,0 l/m 0 min 0 min 0 W/m 3,2 km/h (1 Bft) 97,87 %
09.03.2022 20:58 8,0 C 6,7 C 2,8 C 52 % 1023,4 hPa 0,0 l/m 0 min 0 min 0 W/m 3,2 km/h (1 Bft) 97,83 %
09.03.2022 21:00 7,9 C 6,7 C 2,8 C 52 % 1023,4 hPa 0,0 l/m 0 min 0 min 0 W/m 6,4 km/h (2 Bft) 97,87 %
09.03.2022 21:02 7,9 C 6,7 C 2,8 C 53 % 1023,4 hPa 0,0 l/m 0 min 0 min 0 W/m 6,4 km/h (2 Bft) 97,87 %
09.03.2022 21:04 7,9 C 6,7 C 2,8 C 52 % 1023,4 hPa 0,0 l/m 0 min 0 min 0 W/m 6,4 km/h (2 Bft) 95,74 %
09.03.2022 21:06 7,8 C 6,7 C 2,8 C 52 % 1023,5 hPa 0,0 l/m 0 min 0 min 0 W/m 6,4 km/h (2 Bft) 95,74 %
09.03.2022 21:08 7,8 C 6,7 C 2,8 C 52 % 1023,5 hPa 0,0 l/m 0 min 0 min 0 W/m 3,2 km/h (1 Bft) 97,83 %
09.03.2022 21:10 7,8 C 6,7 C 2,8 C 53 % 1023,5 hPa 0,0 l/m 0 min 0 min 0 W/m 6,4 km/h (2 Bft) 97,87 %
09.03.2022 21:12 7,8 C 6,7 C 2,8 C 52 % 1023,5 hPa 0,0 l/m 0 min 0 min 0 W/m 6,4 km/h (2 Bft) 97,87 %
09.03.2022 21:14 7,8 C 6,7 C 2,8 C 52 % 1023,5 hPa 0,0 l/m 0 min 0 min 0 W/m 6,4 km/h (2 Bft) 95,74 %
09.03.2022 21:16 7,7 C 6,7 C 2,8 C 52 % 1023,5 hPa 0,0 l/m 0 min 0 min 0 W/m 12,9 km/h (3 Bft) 97,87 %
09.03.2022 21:18 7,8 C 6,7 C 2,8 C 52 % 1023,5 hPa 0,0 l/m 0 min 0 min 0 W/m 12,9 km/h (3 Bft) 95,74 %
09.03.2022 21:20 7,8 C 6,7 C 2,8 C 52 % 1023,5 hPa 0,0 l/m 0 min 0 min 0 W/m 9,7 km/h (2 Bft) 93,48 %
09.03.2022 21:22 7,8 C 6,7 C 2,8 C 52 % 1023,6 hPa 0,0 l/m 0 min 0 min 0 W/m 6,4 km/h (2 Bft) 98,00 %
09.03.2022 21:24 7,8 C 6,7 C 2,8 C 52 % 1023,6 hPa 0,0 l/m 0 min 0 min 0 W/m 6,4 km/h (2 Bft) 97,87 %
09.03.2022 21:26 7,8 C 6,7 C 2,8 C 52 % 1023,6 hPa 0,0 l/m 0 min 0 min 0 W/m 6,4 km/h (2 Bft) 95,74 %
09.03.2022 21:28 7,7 C 6,7 C 2,8 C 52 % 1023,6 hPa 0,0 l/m 0 min 0 min 0 W/m 6,4 km/h (2 Bft) 95,74 %
09.03.2022 21:30 7,7 C 6,7 C 2,8 C 52 % 1023,6 hPa 0,0 l/m 0 min 0 min 0 W/m 16,1 km/h (3 Bft) 95,74 %
09.03.2022 21:32 7,7 C 6,7 C 2,8 C 52 % 1023,7 hPa 0,0 l/m 0 min 0 min 0 W/m 12,9 km/h (3 Bft) 95,65 %
09.03.2022 21:34 7,7 C 6,7 C 2,8 C 52 % 1023,7 hPa 0,0 l/m 0 min 0 min 0 W/m 6,4 km/h (2 Bft) 93,62 %
09.03.2022 21:36 7,7 C 6,7 C 2,8 C 52 % 1023,7 hPa 0,0 l/m 0 min 0 min 0 W/m 12,9 km/h (3 Bft) 95,74 %
09.03.2022 21:38 7,7 C 6,7 C 2,8 C 52 % 1023,7 hPa 0,0 l/m 0 min 0 min 0 W/m 6,4 km/h (2 Bft) 95,74 %
09.03.2022 21:40 7,7 C 6,7 C 2,8 C 52 % 1023,7 hPa 0,0 l/m 0 min 0 min 0 W/m 12,9 km/h (3 Bft) 95,74 %
09.03.2022 21:42 7,7 C 6,7 C 2,8 C 52 % 1023,8 hPa 0,0 l/m 0 min 0 min 0 W/m 6,4 km/h (2 Bft) 93,62 %
09.03.2022 21:44 7,7 C 6,7 C 2,8 C 52 % 1023,7 hPa 0,0 l/m 0 min 0 min 0 W/m 9,7 km/h (2 Bft) 95,65 %
09.03.2022 21:46 7,6 C 6,7 C 2,8 C 52 % 1023,8 hPa 0,0 l/m 0 min 0 min 0 W/m 9,7 km/h (2 Bft) 93,62 %
09.03.2022 21:48 7,6 C 6,7 C 2,8 C 52 % 1023,8 hPa 0,0 l/m 0 min 0 min 0 W/m 6,4 km/h (2 Bft) 95,74 %
09.03.2022 21:50 7,6 C 6,7 C 2,8 C 52 % 1023,8 hPa 0,0 l/m 0 min 0 min 0 W/m 6,4 km/h (2 Bft) 93,62 %
09.03.2022 21:52 7,6 C 6,1 C 2,8 C 52 % 1023,8 hPa 0,0 l/m 0 min 0 min 0 W/m 3,2 km/h (1 Bft) 93,62 %
09.03.2022 21:54 7,6 C 6,1 C 2,2 C 52 % 1023,8 hPa 0,0 l/m 0 min 0 min 0 W/m 3,2 km/h (1 Bft) 95,74 %
09.03.2022 21:56 7,5 C 6,1 C 2,2 C 52 % 1023,8 hPa 0,0 l/m 0 min 0 min 0 W/m 6,4 km/h (2 Bft) 95,65 %
09.03.2022 21:58 7,5 C 6,1 C 2,2 C 52 % 1023,8 hPa 0,0 l/m 0 min 0 min 0 W/m 6,4 km/h (2 Bft) 95,74 %
09.03.2022 22:00 7,4 C 6,1 C 2,2 C 52 % 1023,9 hPa 0,0 l/m 0 min 0 min 0 W/m 6,4 km/h (2 Bft) 95,74 %
09.03.2022 22:02 7,4 C 6,1 C 2,2 C 52 % 1023,9 hPa 0,0 l/m 0 min 0 min 0 W/m 12,9 km/h (3 Bft) 95,74 %
09.03.2022 22:04 7,4 C 6,1 C 2,2 C 53 % 1023,9 hPa 0,0 l/m 0 min 0 min 0 W/m 3,2 km/h (1 Bft) 100,00 %
09.03.2022 22:06 7,3 C 6,1 C 2,2 C 53 % 1024,0 hPa 0,0 l/m 0 min 0 min 0 W/m 6,4 km/h (2 Bft) 97,83 %
09.03.2022 22:08 7,3 C 6,1 C 2,2 C 53 % 1023,9 hPa 0,0 l/m 0 min 0 min 0 W/m 6,4 km/h (2 Bft) 95,74 %
09.03.2022 22:10 7,3 C 6,1 C 2,2 C 53 % 1023,9 hPa 0,0 l/m 0 min 0 min 0 W/m 6,4 km/h (2 Bft) 100,00 %
09.03.2022 22:12 7,2 C 6,1 C 2,2 C 53 % 1023,9 hPa 0,0 l/m 0 min 0 min 0 W/m 6,4 km/h (2 Bft) 97,87 %
09.03.2022 22:14 7,2 C 6,1 C 2,2 C 53 % 1023,9 hPa 0,0 l/m 0 min 0 min 0 W/m 12,9 km/h (3 Bft) 100,00 %
09.03.2022 22:16 7,2 C 6,1 C 2,2 C 53 % 1024,0 hPa 0,0 l/m 0 min 0 min 0 W/m 12,9 km/h (3 Bft) 95,74 %
09.03.2022 22:18 7,1 C 6,1 C 2,2 C 53 % 1024,0 hPa 0,0 l/m 0 min 0 min 0 W/m 12,9 km/h (3 Bft) 100,00 %
09.03.2022 22:20 7,1 C 6,1 C 2,2 C 53 % 1024,0 hPa 0,0 l/m 0 min 0 min 0 W/m 6,4 km/h (2 Bft) 97,87 %
09.03.2022 22:22 7,1 C 6,1 C 2,2 C 53 % 1024,1 hPa 0,0 l/m 0 min 0 min 0 W/m 3,2 km/h (1 Bft) 95,74 %
09.03.2022 22:24 7,1 C 6,1 C 2,2 C 53 % 1024,1 hPa 0,0 l/m 0 min 0 min 0 W/m 3,2 km/h (1 Bft) 97,87 %
09.03.2022 22:26 7,0 C 5,6 C 2,2 C 53 % 1024,2 hPa 0,0 l/m 0 min 0 min 0 W/m 3,2 km/h (1 Bft) 97,87 %
09.03.2022 22:28 7,0 C 5,6 C 1,7 C 54 % 1024,2 hPa 0,0 l/m 0 min 0 min 0 W/m 3,2 km/h (1 Bft) 97,87 %
09.03.2022 22:30 6,9 C 5,6 C 1,7 C 54 % 1024,2 hPa 0,0 l/m 0 min 0 min 0 W/m 3,2 km/h (1 Bft) 97,83 %
09.03.2022 22:32 6,9 C 5,6 C 1,7 C 54 % 1024,1 hPa 0,0 l/m 0 min 0 min 0 W/m 6,4 km/h (2 Bft) 97,87 %
09.03.2022 22:34 6,8 C 5,6 C 1,7 C 54 % 1024,1 hPa 0,0 l/m 0 min 0 min 0 W/m 6,4 km/h (2 Bft) 97,87 %
09.03.2022 22:36 6,8 C 5,6 C 1,7 C 54 % 1024,1 hPa 0,0 l/m 0 min 0 min 0 W/m 12,9 km/h (3 Bft) 97,87 %
09.03.2022 22:38 6,8 C 5,6 C 2,2 C 54 % 1024,1 hPa 0,0 l/m 0 min 0 min 0 W/m 6,4 km/h (2 Bft) 97,87 %
09.03.2022 22:40 6,7 C 5,6 C 2,2 C 54 % 1024,1 hPa 0,0 l/m 0 min 0 min 0 W/m 6,4 km/h (2 Bft) 97,87 %
09.03.2022 22:42 6,7 C 5,6 C 2,2 C 54 % 1024,2 hPa 0,0 l/m 0 min 0 min 0 W/m 6,4 km/h (2 Bft) 97,83 %
09.03.2022 22:44 6,7 C 6,1 C 2,2 C 54 % 1024,2 hPa 0,0 l/m 0 min 0 min 0 W/m 12,9 km/h (3 Bft) 97,87 %
09.03.2022 22:46 6,7 C 6,1 C 2,2 C 53 % 1024,1 hPa 0,0 l/m 0 min 0 min 0 W/m 12,9 km/h (3 Bft) 97,87 %
09.03.2022 22:48 6,7 C 6,1 C 2,2 C 53 % 1024,0 hPa 0,0 l/m 0 min 0 min 0 W/m 9,7 km/h (2 Bft) 97,87 %
09.03.2022 22:50 6,7 C 6,1 C 2,2 C 53 % 1024,1 hPa 0,0 l/m 0 min 0 min 0 W/m 6,4 km/h (2 Bft) 54,35 %
09.03.2022 22:52 6,7 C 6,1 C 2,2 C 53 % 1024,1 hPa 0,0 l/m 0 min 0 min 0 W/m 12,9 km/h (3 Bft) 100,00 %
09.03.2022 22:54 6,7 C 6,1 C 2,2 C 53 % 1024,1 hPa 0,0 l/m 0 min 0 min 0 W/m 12,9 km/h (3 Bft) 100,00 %
09.03.2022 22:56 6,7 C 6,1 C 2,2 C 53 % 1024,1 hPa 0,0 l/m 0 min 0 min 0 W/m 12,9 km/h (3 Bft) 100,00 %
09.03.2022 22:58 6,7 C 6,1 C 2,2 C 54 % 1024,1 hPa 0,0 l/m 0 min 0 min 0 W/m 6,4 km/h (2 Bft) 100,00 %
09.03.2022 23:00 6,7 C 5,6 C 2,2 C 54 % 1024,2 hPa 0,0 l/m 0 min 0 min 0 W/m 3,2 km/h (1 Bft) 100,00 %
09.03.2022 23:02 6,7 C 5,6 C 1,7 C 54 % 1024,1 hPa 0,0 l/m 0 min 0 min 0 W/m 3,2 km/h (1 Bft) 100,00 %
09.03.2022 23:04 6,7 C 5,6 C 1,7 C 54 % 1024,1 hPa 0,0 l/m 0 min 0 min 0 W/m 3,2 km/h (1 Bft) 100,00 %
09.03.2022 23:06 6,6 C 5,6 C 1,7 C 54 % 1024,1 hPa 0,0 l/m 0 min 0 min 0 W/m 6,4 km/h (2 Bft) 100,00 %
09.03.2022 23:08 6,6 C 5,6 C 1,7 C 54 % 1024,1 hPa 0,0 l/m 0 min 0 min 0 W/m 6,4 km/h (2 Bft) 100,00 %
09.03.2022 23:10 6,6 C 5,6 C 1,7 C 54 % 1024,1 hPa 0,0 l/m 0 min 0 min 0 W/m 6,4 km/h (2 Bft) 100,00 %
09.03.2022 23:12 6,6 C 5,6 C 1,7 C 54 % 1024,1 hPa 0,0 l/m 0 min 0 min 0 W/m 6,4 km/h (2 Bft) 100,00 %
09.03.2022 23:14 6,5 C 5,6 C 1,7 C 54 % 1024,1 hPa 0,0 l/m 0 min 0 min 0 W/m 6,4 km/h (2 Bft) 100,00 %
09.03.2022 23:16 6,5 C 5,0 C 1,7 C 54 % 1024,1 hPa 0,0 l/m 0 min 0 min 0 W/m 6,4 km/h (2 Bft) 100,00 %
09.03.2022 23:18 6,5 C 5,0 C 1,7 C 55 % 1024,2 hPa 0,0 l/m 0 min 0 min 0 W/m 6,4 km/h (2 Bft) 95,65 %
09.03.2022 23:20 6,4 C 5,0 C 1,7 C 55 % 1024,2 hPa 0,0 l/m 0 min 0 min 0 W/m 3,2 km/h (1 Bft) 100,00 %
09.03.2022 23:22 6,4 C 5,0 C 1,7 C 55 % 1024,2 hPa 0,0 l/m 0 min 0 min 0 W/m 6,4 km/h (2 Bft) 100,00 %
09.03.2022 23:24 6,3 C 5,0 C 1,7 C 55 % 1024,2 hPa 0,0 l/m 0 min 0 min 0 W/m 6,4 km/h (2 Bft) 97,87 %
09.03.2022 23:26 6,3 C 5,0 C 1,7 C 55 % 1024,2 hPa 0,0 l/m 0 min 0 min 0 W/m 3,2 km/h (1 Bft) 100,00 %
09.03.2022 23:28 6,3 C 5,0 C 1,7 C 55 % 1024,2 hPa 0,0 l/m 0 min 0 min 0 W/m 6,4 km/h (2 Bft) 97,87 %
09.03.2022 23:30 6,3 C 5,0 C 1,7 C 55 % 1024,2 hPa 0,0 l/m 0 min 0 min 0 W/m 6,4 km/h (2 Bft) 100,00 %
09.03.2022 23:32 6,2 C 5,0 C 1,7 C 55 % 1024,2 hPa 0,0 l/m 0 min 0 min 0 W/m 6,4 km/h (2 Bft) 100,00 %
09.03.2022 23:34 6,2 C 5,0 C 1,7 C 55 % 1024,2 hPa 0,0 l/m 0 min 0 min 0 W/m 6,4 km/h (2 Bft) 100,00 %
09.03.2022 23:36 6,2 C 5,0 C 1,7 C 55 % 1024,2 hPa 0,0 l/m 0 min 0 min 0 W/m 12,9 km/h (3 Bft) 100,00 %
09.03.2022 23:38 6,2 C 5,0 C 1,7 C 55 % 1024,2 hPa 0,0 l/m 0 min 0 min 0 W/m 12,9 km/h (3 Bft) 97,87 %
09.03.2022 23:40 6,1 C 5,0 C 1,7 C 55 % 1024,3 hPa 0,0 l/m 0 min 0 min 0 W/m 3,2 km/h (1 Bft) 97,87 %
09.03.2022 23:42 6,1 C 5,0 C 1,7 C 56 % 1024,4 hPa 0,0 l/m 0 min 0 min 0 W/m 6,4 km/h (2 Bft) 97,83 %
09.03.2022 23:44 6,1 C 5,0 C 1,7 C 56 % 1024,4 hPa 0,0 l/m 0 min 0 min 0 W/m 6,4 km/h (2 Bft) 97,87 %
09.03.2022 23:46 6,1 C 5,0 C 1,7 C 56 % 1024,3 hPa 0,0 l/m 0 min 0 min 0 W/m 6,4 km/h (2 Bft) 97,87 %
09.03.2022 23:48 6,1 C 5,0 C 1,1 C 56 % 1024,3 hPa 0,0 l/m 0 min 0 min 0 W/m 6,4 km/h (2 Bft) 97,87 %
09.03.2022 23:50 6,1 C 5,0 C 1,1 C 56 % 1024,4 hPa 0,0 l/m 0 min 0 min 0 W/m 6,4 km/h (2 Bft) 97,87 %
09.03.2022 23:52 6,0 C 5,0 C 1,1 C 56 % 1024,4 hPa 0,0 l/m 0 min 0 min 0 W/m 12,9 km/h (3 Bft) 95,65 %
09.03.2022 23:54 6,0 C 5,0 C 1,1 C 56 % 1024,3 hPa 0,0 l/m 0 min 0 min 0 W/m 6,4 km/h (2 Bft) 97,87 %
09.03.2022 23:56 6,0 C 5,0 C 1,1 C 55 % 1024,3 hPa 0,0 l/m 0 min 0 min 0 W/m 6,4 km/h (2 Bft) 95,74 %
09.03.2022 23:58 5,9 C 5,0 C 1,1 C 55 % 1024,3 hPa 0,0 l/m 0 min 0 min 0 W/m 9,7 km/h (2 Bft) 53,49 %
_ Min-Zeit 07:20 00:04 00:08 16:40 16:24 - - - - 00:00 23:58
Minimum _ 1,1 C 0,0 C -3,9 C 37 % 1022,1 hPa - - - - 0,0 km/h (0 Bft) 53,49 %
_ Max-Zeit 15:34 13:36 11:20 00:24 23:42 00:00 17:05 00:00 13:00 11:50 00:08
Maximum _ 14,9 C 22,2 C 12,2 C 70 % 1024,4 hPa 0,0 l/m 5 min 0 min 642 W/m 38,6 km/h
S-SO (5 Bft)
100,00 %
Durchschnitt _ 7,2 C 7,9 C 2,9 C 54 % 1023,1 hPa #0,0 l/m #8:09 h #0 min. 332 W/m 11,1 km/h (2 Bft) 97,51 %
© 2022 W. Hausmann